Observation data for Estelline on 06/24/2019      Previous  Date  Next       Current Mesonet Observations  Soil Data  Daily Summary Page  Observations in Plain Language
KES1 240500Z 06005KT 23/15 A2987 RMK A01 T02260154  RH  064%=      5-min Rain = 0
KES1 240501Z 06005KT 23/15 A2987 RMK A01 T02250154  RH  064%=      5-min Rain = 0
KES1 240502Z 06005KT 23/15 A2987 RMK A01 T02260154  RH  064%=      5-min Rain = 0
KES1 240503Z 05005KT 23/15 A2988 RMK A01 T02260154  RH  064%=      5-min Rain = 0
KES1 240504Z 05004KT 23/15 A2988 RMK A01 T02260154  RH  064%=      5-min Rain = 0
KES1 240505Z 05004KT 23/15 A2988 RMK A01 T02260154  RH  064%=      5-min Rain = 0
KES1 240506Z 05003KT 23/15 A2988 RMK A01 T02250154  RH  064%=      5-min Rain = 0
KES1 240507Z 05003KT 23/15 A2988 RMK A01 T02250154  RH  064%=      5-min Rain = 0
KES1 240508Z 05003KT 23/15 A2988 RMK A01 T02250154  RH  064%=      5-min Rain = 0
KES1 240509Z 04003KT 23/15 A2988 RMK A01 T02250154  RH  064%=      5-min Rain = 0
KES1 240510Z 03003KT 22/15 A2988 RMK A01 T02240154  RH  065%=      5-min Rain = 0
KES1 240511Z 03003KT 22/15 A2988 RMK A01 T02240154  RH  065%=      5-min Rain = 0
KES1 240512Z 04003KT 22/15 A2988 RMK A01 T02230154  RH  065%=      5-min Rain = 0
KES1 240513Z 04003KT 22/16 A2988 RMK A01 T02230155  RH  065%=      5-min Rain = 0
KES1 240514Z 04002KT 22/16 A2988 RMK A01 T02230155  RH  065%=      5-min Rain = 0
KES1 240515Z 04003KT 22/16 A2988 RMK A01 T02230155  RH  065%=      5-min Rain = 0
KES1 240516Z 05002KT 22/16 A2988 RMK A01 T02230155  RH  065%=      5-min Rain = 0
KES1 240517Z 05003KT 22/16 A2988 RMK A01 T02230155  RH  065%=      5-min Rain = 0
KES1 240518Z 05003KT 22/16 A2988 RMK A01 T02230155  RH  065%=      5-min Rain = 0
KES1 240519Z 05003KT 22/15 A2988 RMK A01 T02220154  RH  065%=      5-min Rain = 0
KES1 240520Z 06003KT 22/15 A2988 RMK A01 T02210154  RH  066%=      5-min Rain = 0
KES1 240521Z 06003KT 22/15 A2988 RMK A01 T02200154  RH  066%=      5-min Rain = 0
KES1 240522Z 06003KT 22/15 A2989 RMK A01 T02190154  RH  066%=      5-min Rain = 0
KES1 240523Z 05003KT 22/15 A2989 RMK A01 T02170153  RH  067%=      5-min Rain = 0
KES1 240524Z 05003KT 22/15 A2989 RMK A01 T02160153  RH  067%=      5-min Rain = 0
KES1 240525Z 05004KT 22/15 A2989 RMK A01 T02160154  RH  068%=      5-min Rain = 0
KES1 240526Z 05004KT 22/15 A2989 RMK A01 T02160154  RH  068%=      5-min Rain = 0
KES1 240527Z 05004KT 22/16 A2989 RMK A01 T02160155  RH  068%=      5-min Rain = 0
KES1 240528Z 05004KT 22/16 A2989 RMK A01 T02150155  RH  068%=      5-min Rain = 0
KES1 240529Z 05004KT 22/16 A2989 RMK A01 T02160155  RH  068%=      5-min Rain = 0
KES1 240530Z 05004KT 22/16 A2989 RMK A01 T02150155  RH  068%=      5-min Rain = 0
KES1 240531Z 05005KT 21/16 A2989 RMK A01 T02140155  RH  069%=      5-min Rain = 0
KES1 240532Z 05004KT 21/16 A2989 RMK A01 T02140155  RH  069%=      5-min Rain = 0
KES1 240533Z 05004KT 21/16 A2989 RMK A01 T02130155  RH  069%=      5-min Rain = 0
KES1 240534Z 05004KT 21/16 A2989 RMK A01 T02130155  RH  069%=      5-min Rain = 0
KES1 240535Z 05004KT 21/16 A2989 RMK A01 T02130155  RH  069%=      5-min Rain = 0
KES1 240536Z 06004KT 21/16 A2989 RMK A01 T02120155  RH  070%=      5-min Rain = 0
KES1 240537Z 06004KT 21/15 A2989 RMK A01 T02110154  RH  070%=      5-min Rain = 0
KES1 240538Z 05004KT 21/15 A2989 RMK A01 T02090154  RH  071%=      5-min Rain = 0
KES1 240539Z 05004KT 21/16 A2989 RMK A01 T02090155  RH  071%=      5-min Rain = 0
KES1 240540Z 05004KT 21/16 A2989 RMK A01 T02090155  RH  071%=      5-min Rain = 0
KES1 240541Z 05004KT 21/16 A2989 RMK A01 T02100156  RH  071%=      5-min Rain = 0
KES1 240542Z 05004KT 21/16 A2989 RMK A01 T02110156  RH  071%=      5-min Rain = 0
KES1 240543Z 05004KT 21/16 A2989 RMK A01 T02110156  RH  071%=      5-min Rain = 0
KES1 240544Z 05004KT 21/16 A2988 RMK A01 T02120156  RH  070%=      5-min Rain = 0
KES1 240545Z 05004KT 21/16 A2988 RMK A01 T02120156  RH  070%=      5-min Rain = 0
KES1 240546Z 05004KT 21/16 A2989 RMK A01 T02120156  RH  070%=      5-min Rain = 0
KES1 240547Z 06004KT 21/16 A2989 RMK A01 T02100155  RH  071%=      5-min Rain = 0
KES1 240548Z 05005KT 21/15 A2989 RMK A01 T02080154  RH  071%=      5-min Rain = 0
KES1 240549Z 05005KT 21/16 A2989 RMK A01 T02070155  RH  072%=      5-min Rain = 0
KES1 240550Z 05005KT 21/16 A2989 RMK A01 T02060155  RH  072%=      5-min Rain = 0
KES1 240551Z 05006KT 21/16 A2989 RMK A01 T02060155  RH  073%=      5-min Rain = 0
KES1 240552Z 04006KT 21/16 A2989 RMK A01 T02060156  RH  073%=      5-min Rain = 0
KES1 240553Z 04006KT 21/16 A2989 RMK A01 T02050156  RH  073%=      5-min Rain = 0
KES1 240554Z 04006KT 21/16 A299 RMK A01 T02050156  RH  073%=      5-min Rain = 0
KES1 240555Z 04006KT 21/16 A299 RMK A01 T02060156  RH  073%=      5-min Rain = 0
KES1 240556Z 03006KT 21/16 A299 RMK A01 T02060156  RH  073%=      5-min Rain = 0
KES1 240557Z 04007KT 21/16 A299 RMK A01 T02070156  RH  073%=      5-min Rain = 0
KES1 240558Z 03007KT 21/16 A299 RMK A01 T02080157  RH  072%=      5-min Rain = 0
KES1 240559Z 02007KT 21/16 A299 RMK A01 T02100157  RH  072%=      5-min Rain = 0
KES1 240600Z 02008KT 21/16 A299 RMK A01 T02110157  RH  071%=      5-min Rain = 0
KES1 240601Z 02007KT 21/16 A299 RMK A01 T02120157  RH  071%=      5-min Rain = 0
KES1 240602Z 03008KT 21/16 A299 RMK A01 T02120156  RH  070%=      5-min Rain = 0
KES1 240603Z 03008KT 21/16 A299 RMK A01 T02130156  RH  070%=      5-min Rain = 0
KES1 240604Z 03007KT 21/16 A299 RMK A01 T02140157  RH  070%=      5-min Rain = 0
KES1 240605Z 03010KT 22/16 A299 RMK A01 T02150157  RH  069%=      5-min Rain = 0
KES1 240606Z 03009KT 22/16 A299 RMK A01 T02150156  RH  069%=      5-min Rain = 0
KES1 240607Z 03010KT 22/16 A299 RMK A01 T02160156  RH  069%=      5-min Rain = 0
KES1 240608Z 02008KT 22/16 A299 RMK A01 T02170156  RH  068%=      5-min Rain = 0
KES1 240609Z 01008G13KT 22/16 A299 RMK A01 T02180156  RH  068%=      5-min Rain = 0
KES1 240610Z 02009KT 22/16 A299 RMK A01 T02180156  RH  068%=      5-min Rain = 0
KES1 240611Z 02008KT 22/16 A299 RMK A01 T02180156  RH  068%=      5-min Rain = 0
KES1 240612Z 02007KT 22/16 A299 RMK A01 T02180156  RH  068%=      5-min Rain = 0
KES1 240613Z 03007KT 22/16 A299 RMK A01 T02180156  RH  068%=      5-min Rain = 0
KES1 240614Z 03008KT 22/16 A299 RMK A01 T02170156  RH  068%=      5-min Rain = 0
KES1 240615Z 02008KT 22/16 A2991 RMK A01 T02170156  RH  068%=      5-min Rain = 0
KES1 240616Z 02007KT 22/16 A2991 RMK A01 T02170156  RH  069%=      5-min Rain = 0
KES1 240617Z 02006KT 22/16 A2991 RMK A01 T02160156  RH  069%=      5-min Rain = 0
KES1 240618Z 02006KT 22/16 A2991 RMK A01 T02150156  RH  069%=      5-min Rain = 0
KES1 240619Z 03008KT 22/16 A2991 RMK A01 T02150157  RH  069%=      5-min Rain = 0
KES1 240620Z 03008KT 22/16 A2991 RMK A01 T02150157  RH  070%=      5-min Rain = 0
KES1 240621Z 03007KT 22/16 A2991 RMK A01 T02150157  RH  070%=      5-min Rain = 0
KES1 240622Z 03008KT 21/16 A2991 RMK A01 T02140157  RH  070%=      5-min Rain = 0
KES1 240623Z 03007KT 21/16 A2991 RMK A01 T02140157  RH  070%=      5-min Rain = 0
KES1 240624Z 03008KT 21/16 A2991 RMK A01 T02130157  RH  070%=      5-min Rain = 0
KES1 240625Z 03007KT 21/16 A2991 RMK A01 T02130158  RH  071%=      5-min Rain = 0
KES1 240626Z 03007KT 21/16 A2991 RMK A01 T02130158  RH  071%=      5-min Rain = 0
KES1 240627Z 04007KT 21/16 A2991 RMK A01 T02130158  RH  071%=      5-min Rain = 0
KES1 240628Z 04007KT 21/16 A2991 RMK A01 T02120158  RH  071%=      5-min Rain = 0
KES1 240629Z 04007KT 21/16 A2991 RMK A01 T02120158  RH  071%=      5-min Rain = 0
KES1 240630Z 04006KT 21/16 A299 RMK A01 T02110158  RH  072%=      5-min Rain = 0
KES1 240631Z 04006KT 21/16 A299 RMK A01 T02110158  RH  072%=      5-min Rain = 0
KES1 240632Z 04007KT 21/16 A299 RMK A01 T02100158  RH  072%=      5-min Rain = 0
KES1 240633Z 04006KT 21/16 A299 RMK A01 T02100158  RH  072%=      5-min Rain = 0
KES1 240634Z 04007KT 21/16 A2991 RMK A01 T02100158  RH  072%=      5-min Rain = 0
KES1 240635Z 04006KT 21/16 A2991 RMK A01 T02090158  RH  072%=      5-min Rain = 0
KES1 240636Z 04006KT 21/16 A299 RMK A01 T02100158  RH  072%=      5-min Rain = 0
KES1 240637Z 04006KT 21/16 A299 RMK A01 T02090158  RH  073%=      5-min Rain = 0
KES1 240638Z 03007KT 21/16 A299 RMK A01 T02080158  RH  073%=      5-min Rain = 0
KES1 240639Z 04007KT 21/16 A299 RMK A01 T02080158  RH  073%=      5-min Rain = 0
KES1 240640Z 04007KT 21/16 A299 RMK A01 T02080158  RH  073%=      5-min Rain = 0
KES1 240641Z 03008KT 21/16 A299 RMK A01 T02080158  RH  073%=      5-min Rain = 0
KES1 240642Z 04007KT 21/16 A299 RMK A01 T02080159  RH  073%=      5-min Rain = 0
KES1 240643Z 04006KT 21/16 A299 RMK A01 T02080158  RH  073%=      5-min Rain = 0
KES1 240644Z 04007KT 21/16 A299 RMK A01 T02080159  RH  073%=      5-min Rain = 0
KES1 240645Z 04007KT 21/16 A299 RMK A01 T02070158  RH  074%=      5-min Rain = 0
KES1 240646Z 04006KT 21/16 A299 RMK A01 T02070159  RH  074%=      5-min Rain = 0
KES1 240647Z 04006KT 21/16 A299 RMK A01 T02070158  RH  074%=      5-min Rain = 0
KES1 240648Z 04008KT 21/16 A2991 RMK A01 T02060158  RH  074%=      5-min Rain = 0
KES1 240649Z 04006KT 21/16 A2991 RMK A01 T02060158  RH  074%=      5-min Rain = 0
KES1 240650Z 04007KT 21/16 A2991 RMK A01 T02060158  RH  074%=      5-min Rain = 0
KES1 240651Z 04007KT 21/16 A2991 RMK A01 T02050158  RH  074%=      5-min Rain = 0
KES1 240652Z 04007KT 21/16 A2991 RMK A01 T02050158  RH  074%=      5-min Rain = 0
KES1 240653Z 03007KT 21/16 A2991 RMK A01 T02050158  RH  074%=      5-min Rain = 0
KES1 240654Z 03006KT 21/16 A2991 RMK A01 T02050158  RH  074%=      5-min Rain = 0
KES1 240655Z 03005KT 21/16 A2991 RMK A01 T02050158  RH  074%=      5-min Rain = 0
KES1 240656Z 03005KT 21/16 A2991 RMK A01 T02050158  RH  074%=      5-min Rain = 0
KES1 240657Z 04005KT 20/16 A2991 RMK A01 T02040158  RH  074%=      5-min Rain = 0
KES1 240658Z 03005KT 20/16 A2991 RMK A01 T02040158  RH  075%=      5-min Rain = 0
KES1 240659Z 04005KT 20/16 A2991 RMK A01 T02040157  RH  075%=      5-min Rain = 0
KES1 240700Z 03004KT 20/16 A2991 RMK A01 T02030157  RH  075%=      5-min Rain = 0
KES1 240701Z 04005KT 20/16 A2991 RMK A01 T02030157  RH  075%=      5-min Rain = 0
KES1 240702Z 04004KT 20/16 A2991 RMK A01 T02030157  RH  075%=      5-min Rain = 0
KES1 240703Z 03004KT 20/16 A2991 RMK A01 T02020157  RH  075%=      5-min Rain = 0
KES1 240704Z 03005KT 20/16 A2992 RMK A01 T02020157  RH  075%=      5-min Rain = 0
KES1 240705Z 04004KT 20/16 A2992 RMK A01 T02010157  RH  075%=      5-min Rain = 0
KES1 240706Z 04006KT 20/16 A2992 RMK A01 T02010156  RH  075%=      5-min Rain = 0
KES1 240707Z 04006KT 20/16 A2992 RMK A01 T02010155  RH  075%=      5-min Rain = 0
KES1 240708Z 04006KT 20/15 A2992 RMK A01 T02010154  RH  074%=      5-min Rain = 0
KES1 240709Z 04006KT 20/15 A2992 RMK A01 T02010154  RH  074%=      5-min Rain = 0
KES1 240710Z 05005KT 20/15 A2991 RMK A01 T02010153  RH  074%=      5-min Rain = 0
KES1 240711Z 05005KT 20/15 A2992 RMK A01 T02010153  RH  074%=      5-min Rain = 0
KES1 240712Z 05006KT 20/15 A2992 RMK A01 T02010152  RH  074%=      5-min Rain = 0
KES1 240713Z 04006KT 20/15 A2992 RMK A01 T02000150  RH  073%=      5-min Rain = 0
KES1 240714Z 05006KT 20/15 A2992 RMK A01 T02000150  RH  073%=      5-min Rain = 0
KES1 240715Z 05006KT 20/15 A2992 RMK A01 T02000149  RH  072%=      5-min Rain = 0
KES1 240716Z 05007KT 20/15 A2992 RMK A01 T02010149  RH  072%=      5-min Rain = 0
KES1 240717Z 05006KT 20/15 A2992 RMK A01 T02010148  RH  072%=      5-min Rain = 0
KES1 240718Z 05006KT 20/15 A2992 RMK A01 T02010148  RH  072%=      5-min Rain = 0
KES1 240719Z 05006KT 20/15 A2992 RMK A01 T02010148  RH  072%=      5-min Rain = 0
KES1 240720Z 05006KT 20/15 A2992 RMK A01 T02000148  RH  072%=      5-min Rain = 0
KES1 240721Z 04006KT 20/15 A2992 RMK A01 T02000148  RH  072%=      5-min Rain = 0
KES1 240722Z 04006KT 20/15 A2992 RMK A01 T02000147  RH  072%=      5-min Rain = 0
KES1 240723Z 04006KT 20/15 A2992 RMK A01 T02000147  RH  072%=      5-min Rain = 0
KES1 240724Z 04005KT 20/15 A2992 RMK A01 T01990147  RH  072%=      5-min Rain = 0
KES1 240725Z 04006KT 20/15 A2992 RMK A01 T01990146  RH  071%=      5-min Rain = 0
KES1 240726Z 03005KT 20/15 A2992 RMK A01 T01990146  RH  071%=      5-min Rain = 0
KES1 240727Z 04006KT 20/15 A2992 RMK A01 T01990146  RH  071%=      5-min Rain = 0
KES1 240728Z 03005KT 20/15 A2992 RMK A01 T01990146  RH  071%=      5-min Rain = 0
KES1 240729Z 04005KT 20/15 A2992 RMK A01 T01990146  RH  071%=      5-min Rain = 0
KES1 240730Z 03005KT 20/15 A2993 RMK A01 T01990146  RH  071%=      5-min Rain = 0
KES1 240731Z 03005KT 20/15 A2993 RMK A01 T01990146  RH  071%=      5-min Rain = 0
KES1 240732Z 03005KT 20/15 A2993 RMK A01 T01980146  RH  072%=      5-min Rain = 0
KES1 240733Z 03005KT 20/15 A2993 RMK A01 T01980146  RH  072%=      5-min Rain = 0
KES1 240734Z 03005KT 20/15 A2993 RMK A01 T01970146  RH  072%=      5-min Rain = 0
KES1 240735Z 03005KT 20/15 A2993 RMK A01 T01970146  RH  072%=      5-min Rain = 0
KES1 240736Z 03005KT 20/15 A2993 RMK A01 T01970146  RH  072%=      5-min Rain = 0
KES1 240737Z 03004KT 20/15 A2993 RMK A01 T01970146  RH  072%=      5-min Rain = 0
KES1 240738Z 04004KT 20/15 A2993 RMK A01 T01970146  RH  072%=      5-min Rain = 0
KES1 240739Z 03004KT 20/15 A2993 RMK A01 T01960145  RH  073%=      5-min Rain = 0
KES1 240740Z 03004KT 20/15 A2993 RMK A01 T01960146  RH  073%=      5-min Rain = 0
KES1 240741Z 03005KT 20/15 A2993 RMK A01 T01950145  RH  073%=      5-min Rain = 0
KES1 240742Z 03004KT 19/15 A2993 RMK A01 T01940146  RH  073%=      5-min Rain = 0
KES1 240743Z 03004KT 19/15 A2993 RMK A01 T01940146  RH  074%=      5-min Rain = 0
KES1 240744Z 02004KT 19/15 A2993 RMK A01 T01930146  RH  074%=      5-min Rain = 0
KES1 240745Z 02004KT 19/15 A2992 RMK A01 T01930146  RH  074%=      5-min Rain = 0
KES1 240746Z 02004KT 19/15 A2992 RMK A01 T01930146  RH  074%=      5-min Rain = 0
KES1 240747Z 02004KT 19/15 A2992 RMK A01 T01930146  RH  074%=      5-min Rain = 0
KES1 240748Z 02004KT 19/15 A2992 RMK A01 T01930146  RH  074%=      5-min Rain = 0
KES1 240749Z 02005KT 19/15 A2992 RMK A01 T01930146  RH  074%=      5-min Rain = 0
KES1 240750Z 02005KT 19/15 A2992 RMK A01 T01930146  RH  074%=      5-min Rain = 0
KES1 240751Z 03005KT 19/15 A2992 RMK A01 T01940147  RH  074%=      5-min Rain = 0
KES1 240752Z 03005KT 19/15 A2992 RMK A01 T01930146  RH  074%=      5-min Rain = 0
KES1 240753Z 03005KT 19/15 A2992 RMK A01 T01930146  RH  074%=      5-min Rain = 0
KES1 240754Z 03004KT 19/15 A2992 RMK A01 T01930146  RH  074%=      5-min Rain = 0
KES1 240755Z 03004KT 19/15 A2992 RMK A01 T01920146  RH  074%=      5-min Rain = 0
KES1 240756Z 03004KT 19/15 A2992 RMK A01 T01910145  RH  075%=      5-min Rain = 0
KES1 240757Z 03004KT 19/15 A2992 RMK A01 T01910146  RH  075%=      5-min Rain = 0
KES1 240758Z 03004KT 19/15 A2992 RMK A01 T01910146  RH  075%=      5-min Rain = 0
KES1 240759Z 03003KT 19/15 A2992 RMK A01 T01900145  RH  075%=      5-min Rain = 0
KES1 240800Z 02003KT 19/15 A2992 RMK A01 T01900145  RH  075%=      5-min Rain = 0
KES1 240801Z 02003KT 19/15 A2992 RMK A01 T01900146  RH  076%=      5-min Rain = 0
KES1 240802Z 01003KT 19/15 A2992 RMK A01 T01900146  RH  076%=      5-min Rain = 0
KES1 240803Z 01003KT 19/15 A2992 RMK A01 T01900146  RH  076%=      5-min Rain = 0
KES1 240804Z 01003KT 19/15 A2992 RMK A01 T01900146  RH  076%=      5-min Rain = 0
KES1 240805Z 01004KT 19/15 A2992 RMK A01 T01900146  RH  075%=      5-min Rain = 0
KES1 240806Z 01003KT 19/15 A2992 RMK A01 T01910146  RH  075%=      5-min Rain = 0
KES1 240807Z 01004KT 19/15 A2992 RMK A01 T01910146  RH  075%=      5-min Rain = 0
KES1 240808Z 02003KT 19/15 A2992 RMK A01 T01910147  RH  075%=      5-min Rain = 0
KES1 240809Z 03003KT 19/15 A2992 RMK A01 T01900146  RH  075%=      5-min Rain = 0
KES1 240810Z 03002KT 19/15 A2992 RMK A01 T01900146  RH  075%=      5-min Rain = 0
KES1 240811Z 03003KT 19/15 A2992 RMK A01 T01890145  RH  076%=      5-min Rain = 0
KES1 240812Z 03002KT 19/15 A2993 RMK A01 T01880145  RH  076%=      5-min Rain = 0
KES1 240813Z 03002KT 19/15 A2993 RMK A01 T01880145  RH  076%=      5-min Rain = 0
KES1 240814Z 03002KT 19/15 A2993 RMK A01 T01870145  RH  077%=      5-min Rain = 0
KES1 240815Z 03002KT 19/15 A2993 RMK A01 T01870145  RH  077%=      5-min Rain = 0
KES1 240816Z 02003KT 19/15 A2993 RMK A01 T01870146  RH  077%=      5-min Rain = 0
KES1 240817Z 02002KT 19/15 A2993 RMK A01 T01870146  RH  077%=      5-min Rain = 0
KES1 240818Z 02002KT 19/15 A2993 RMK A01 T01870146  RH  077%=      5-min Rain = 0
KES1 240819Z 02002KT 19/15 A2993 RMK A01 T01870146  RH  077%=      5-min Rain = 0
KES1 240820Z 01002KT 19/15 A2993 RMK A01 T01870146  RH  077%=      5-min Rain = 0
KES1 240821Z 01002KT 19/15 A2993 RMK A01 T01870146  RH  077%=      5-min Rain = 0
KES1 240822Z 01002KT 19/15 A2993 RMK A01 T01880146  RH  076%=      5-min Rain = 0
KES1 240823Z 02002KT 19/15 A2993 RMK A01 T01880146  RH  076%=      5-min Rain = 0
KES1 240824Z 02001KT 19/15 A2993 RMK A01 T01880146  RH  076%=      5-min Rain = 0
KES1 240825Z 02001KT 19/15 A2993 RMK A01 T01890146  RH  076%=      5-min Rain = 0
KES1 240826Z 02001KT 19/15 A2993 RMK A01 T01880146  RH  076%=      5-min Rain = 0
KES1 240827Z 02001KT 19/15 A2993 RMK A01 T01890146  RH  076%=      5-min Rain = 0
KES1 240828Z 01001KT 19/15 A2993 RMK A01 T01890146  RH  076%=      5-min Rain = 0
KES1 240829Z 36002KT 19/15 A2993 RMK A01 T01890146  RH  076%=      5-min Rain = 0
KES1 240830Z 35002KT 19/15 A2993 RMK A01 T01900146  RH  076%=      5-min Rain = 0
KES1 240831Z 35003KT 19/15 A2993 RMK A01 T01900146  RH  076%=      5-min Rain = 0
KES1 240832Z 35003KT 19/15 A2993 RMK A01 T01900146  RH  076%=      5-min Rain = 0
KES1 240833Z 35003KT 19/15 A2993 RMK A01 T01900146  RH  076%=      5-min Rain = 0
KES1 240834Z 34002KT 19/15 A2993 RMK A01 T01900147  RH  076%=      5-min Rain = 0
KES1 240835Z 34002KT 19/15 A2993 RMK A01 T01890146  RH  076%=      5-min Rain = 0
KES1 240836Z 33002KT 19/15 A2993 RMK A01 T01890146  RH  076%=      5-min Rain = 0
KES1 240837Z 33002KT 19/15 A2993 RMK A01 T01880146  RH  076%=      5-min Rain = 0
KES1 240838Z 33003KT 19/15 A2993 RMK A01 T01880146  RH  077%=      5-min Rain = 0
KES1 240839Z 31003KT 19/15 A2993 RMK A01 T01870146  RH  077%=      5-min Rain = 0
KES1 240840Z 31003KT 19/15 A2993 RMK A01 T01860146  RH  077%=      5-min Rain = 0
KES1 240841Z 30003KT 19/15 A2993 RMK A01 T01860146  RH  078%=      5-min Rain = 0
KES1 240842Z 30004KT 18/15 A2993 RMK A01 T01840145  RH  078%=      5-min Rain = 0
KES1 240843Z 30003KT 18/15 A2993 RMK A01 T01830145  RH  078%=      5-min Rain = 0
KES1 240844Z 31003KT 18/15 A2993 RMK A01 T01820146  RH  079%=      5-min Rain = 0
KES1 240845Z 31003KT 18/15 A2993 RMK A01 T01810146  RH  080%=      5-min Rain = 0
KES1 240846Z 32003KT 18/15 A2993 RMK A01 T01810146  RH  080%=      5-min Rain = 0
KES1 240847Z 33003KT 18/15 A2993 RMK A01 T01800146  RH  080%=      5-min Rain = 0
KES1 240848Z 33003KT 18/15 A2993 RMK A01 T01800146  RH  081%=      5-min Rain = 0
KES1 240849Z 33003KT 18/15 A2993 RMK A01 T01790146  RH  081%=      5-min Rain = 0
KES1 240850Z 33003KT 18/15 A2993 RMK A01 T01790146  RH  081%=      5-min Rain = 0
KES1 240851Z 33002KT 18/14 A2993 RMK A01 T01780141  RH  079%=      5-min Rain = 0
KES1 240852Z 34003KT 18/14 A2993 RMK A01 T01750141  RH  081%=      5-min Rain = 0
KES1 240853Z 34003KT 17/14 A2993 RMK A01 T01740143  RH  082%=      5-min Rain = 0
KES1 240854Z 33003KT 17/14 A2993 RMK A01 T01740144  RH  083%=      5-min Rain = 0
KES1 240855Z 33003KT 17/14 A2993 RMK A01 T01740144  RH  083%=      5-min Rain = 0
KES1 240856Z 32002KT 17/14 A2993 RMK A01 T01740144  RH  082%=      5-min Rain = 0
KES1 240857Z 31003KT 17/14 A2993 RMK A01 T01740144  RH  082%=      5-min Rain = 0
KES1 240858Z 31003KT 17/14 A2993 RMK A01 T01740144  RH  082%=      5-min Rain = 0
KES1 240859Z 32003KT 18/15 A2993 RMK A01 T01750145  RH  083%=      5-min Rain = 0
KES1 240900Z 32003KT 18/15 A2993 RMK A01 T01750145  RH  083%=      5-min Rain = 0
KES1 240901Z 31003KT 18/15 A2993 RMK A01 T01760145  RH  082%=      5-min Rain = 0
KES1 240902Z 31004KT 18/15 A2993 RMK A01 T01750145  RH  082%=      5-min Rain = 0
KES1 240903Z 31003KT 18/15 A2993 RMK A01 T01760145  RH  082%=      5-min Rain = 0
KES1 240904Z 31003KT 18/15 A2993 RMK A01 T01760145  RH  082%=      5-min Rain = 0
KES1 240905Z 31003KT 18/15 A2993 RMK A01 T01760145  RH  082%=      5-min Rain = 0
KES1 240906Z 32003KT 18/15 A2993 RMK A01 T01750145  RH  082%=      5-min Rain = 0
KES1 240907Z 32002KT 18/15 A2993 RMK A01 T01750145  RH  082%=      5-min Rain = 0
KES1 240908Z 32001KT 17/14 A2993 RMK A01 T01740142  RH  081%=      5-min Rain = 0
KES1 240909Z 30001KT 17/14 A2993 RMK A01 T01710138  RH  081%=      5-min Rain = 0
KES1 240910Z 30001KT 17/14 A2993 RMK A01 T01690141  RH  083%=      5-min Rain = 0
KES1 240911Z 30001KT 17/14 A2993 RMK A01 T01690143  RH  084%=      5-min Rain = 0
KES1 240912Z 30001KT 17/14 A2993 RMK A01 T01690144  RH  085%=      5-min Rain = 0
KES1 240913Z 30001KT 17/15 A2993 RMK A01 T01710145  RH  085%=      5-min Rain = 0
KES1 240914Z 27001KT 17/15 A2993 RMK A01 T01720145  RH  084%=      5-min Rain = 0
KES1 240915Z 27001KT 17/15 A2993 RMK A01 T01740145  RH  083%=      5-min Rain = 0
KES1 240916Z 27001KT 18/15 A2993 RMK A01 T01750145  RH  083%=      5-min Rain = 0
KES1 240917Z 27000KT 18/15 A2993 RMK A01 T01750145  RH  082%=      5-min Rain = 0
KES1 240918Z 27000KT 18/15 A2993 RMK A01 T01750145  RH  082%=      5-min Rain = 0
KES1 240919Z 27000KT 18/15 A2993 RMK A01 T01750145  RH  083%=      5-min Rain = 0
KES1 240920Z 27001KT 18/15 A2993 RMK A01 T01760145  RH  082%=      5-min Rain = 0
KES1 240921Z 27001KT 18/15 A2993 RMK A01 T01770145  RH  082%=      5-min Rain = 0
KES1 240922Z 27001KT 18/15 A2993 RMK A01 T01780145  RH  081%=      5-min Rain = 0
KES1 240923Z 27002KT 18/15 A2993 RMK A01 T01790145  RH  081%=      5-min Rain = 0
KES1 240924Z 27001KT 18/14 A2993 RMK A01 T01790144  RH  080%=      5-min Rain = 0
KES1 240925Z 29001KT 18/15 A2993 RMK A01 T01790145  RH  081%=      5-min Rain = 0
KES1 240926Z 32002KT 18/15 A2993 RMK A01 T01790145  RH  080%=      5-min Rain = 0
KES1 240927Z 32002KT 18/15 A2993 RMK A01 T01800145  RH  079%=      5-min Rain = 0
KES1 240928Z 32001KT 18/14 A2993 RMK A01 T01820144  RH  079%=      5-min Rain = 0
KES1 240929Z 32001KT 18/15 A2993 RMK A01 T01820145  RH  079%=      5-min Rain = 0
KES1 240930Z 32001KT 18/14 A2993 RMK A01 T01830143  RH  078%=      5-min Rain = 0
KES1 240931Z 33001KT 18/14 A2993 RMK A01 T01830142  RH  077%=      5-min Rain = 0
KES1 240932Z 33001KT 18/14 A2993 RMK A01 T01840143  RH  077%=      5-min Rain = 0
KES1 240933Z 33002KT 18/14 A2993 RMK A01 T01840143  RH  077%=      5-min Rain = 0
KES1 240934Z 34002KT 18/14 A2993 RMK A01 T01840141  RH  076%=      5-min Rain = 0
KES1 240935Z 34002KT 18/14 A2993 RMK A01 T01840140  RH  075%=      5-min Rain = 0
KES1 240936Z 34002KT 19/14 A2993 RMK A01 T01850139  RH  074%=      5-min Rain = 0
KES1 240937Z 33002KT 19/14 A2993 RMK A01 T01860139  RH  074%=      5-min Rain = 0
KES1 240938Z 33002KT 19/14 A2993 RMK A01 T01860140  RH  074%=      5-min Rain = 0
KES1 240939Z 33002KT 19/14 A2993 RMK A01 T01860140  RH  074%=      5-min Rain = 0
KES1 240940Z 33002KT 19/14 A2993 RMK A01 T01860141  RH  075%=      5-min Rain = 0
KES1 240941Z 34003KT 19/14 A2993 RMK A01 T01860140  RH  075%=      5-min Rain = 0
KES1 240942Z 33002KT 19/14 A2993 RMK A01 T01860139  RH  074%=      5-min Rain = 0
KES1 240943Z 33002KT 19/14 A2993 RMK A01 T01860140  RH  075%=      5-min Rain = 0
KES1 240944Z 33002KT 19/14 A2993 RMK A01 T01860139  RH  074%=      5-min Rain = 0
KES1 240945Z 32003KT 19/14 A2993 RMK A01 T01850139  RH  075%=      5-min Rain = 0
KES1 240946Z 31003KT 19/14 A2993 RMK A01 T01850140  RH  075%=      5-min Rain = 0
KES1 240947Z 31003KT 19/14 A2993 RMK A01 T01850140  RH  075%=      5-min Rain = 0
KES1 240948Z 31003KT 18/14 A2993 RMK A01 T01840140  RH  075%=      5-min Rain = 0
KES1 240949Z 30003KT 18/14 A2994 RMK A01 T01840140  RH  075%=      5-min Rain = 0
KES1 240950Z 30002KT 18/14 A2994 RMK A01 T01840140  RH  076%=      5-min Rain = 0
KES1 240951Z 31002KT 18/14 A2994 RMK A01 T01820140  RH  076%=      5-min Rain = 0
KES1 240952Z 31002KT 18/14 A2994 RMK A01 T01810141  RH  077%=      5-min Rain = 0
KES1 240953Z 30002KT 18/14 A2994 RMK A01 T01800140  RH  078%=      5-min Rain = 0
KES1 240954Z 31002KT 18/14 A2994 RMK A01 T01780139  RH  078%=      5-min Rain = 0
KES1 240955Z 31002KT 18/14 A2994 RMK A01 T01770139  RH  078%=      5-min Rain = 0
KES1 240956Z 31002KT 18/14 A2994 RMK A01 T01760139  RH  079%=      5-min Rain = 0
KES1 240957Z 32002KT 18/14 A2994 RMK A01 T01760138  RH  079%=      5-min Rain = 0
KES1 240958Z 31002KT 18/14 A2994 RMK A01 T01750138  RH  079%=      5-min Rain = 0
KES1 240959Z 31002KT 18/14 A2994 RMK A01 T01750138  RH  078%=      5-min Rain = 0
KES1 241000Z 31002KT 18/14 A2994 RMK A01 T01760137  RH  078%=      5-min Rain = 0
KES1 241001Z 31002KT 18/14 A2994 RMK A01 T01760137  RH  078%=      5-min Rain = 0
KES1 241002Z 32002KT 18/14 A2994 RMK A01 T01770137  RH  077%=      5-min Rain = 0
KES1 241003Z 33001KT 18/14 A2994 RMK A01 T01780136  RH  077%=      5-min Rain = 0
KES1 241004Z 32001KT 18/14 A2994 RMK A01 T01780136  RH  076%=      5-min Rain = 0
KES1 241005Z 32001KT 18/14 A2994 RMK A01 T01780136  RH  077%=      5-min Rain = 0
KES1 241006Z 34002KT 18/14 A2994 RMK A01 T01770136  RH  077%=      5-min Rain = 0
KES1 241007Z 35002KT 18/14 A2994 RMK A01 T01750135  RH  077%=      5-min Rain = 0
KES1 241008Z 35002KT 17/14 A2994 RMK A01 T01720135  RH  079%=      5-min Rain = 0
KES1 241009Z 34002KT 17/14 A2994 RMK A01 T01720135  RH  079%=      5-min Rain = 0
KES1 241010Z 33002KT 17/14 A2994 RMK A01 T01710135  RH  079%=      5-min Rain = 0
KES1 241011Z 32003KT 17/13 A2994 RMK A01 T01710134  RH  079%=      5-min Rain = 0
KES1 241012Z 32003KT 17/13 A2994 RMK A01 T01720134  RH  079%=      5-min Rain = 0
KES1 241013Z 32003KT 17/14 A2994 RMK A01 T01730135  RH  079%=      5-min Rain = 0
KES1 241014Z 32003KT 17/14 A2994 RMK A01 T01730136  RH  079%=      5-min Rain = 0
KES1 241015Z 33003KT 17/14 A2994 RMK A01 T01730136  RH  079%=      5-min Rain = 0
KES1 241016Z 33003KT 17/14 A2994 RMK A01 T01730136  RH  079%=      5-min Rain = 0
KES1 241017Z 33003KT 17/14 A2994 RMK A01 T01730136  RH  079%=      5-min Rain = 0
KES1 241018Z 33003KT 17/14 A2995 RMK A01 T01730136  RH  079%=      5-min Rain = 0
KES1 241019Z 33002KT 17/14 A2995 RMK A01 T01720135  RH  079%=      5-min Rain = 0
KES1 241020Z 33002KT 17/14 A2995 RMK A01 T01710135  RH  079%=      5-min Rain = 0
KES1 241021Z 34002KT 17/14 A2995 RMK A01 T01700135  RH  080%=      5-min Rain = 0
KES1 241022Z 34002KT 17/13 A2995 RMK A01 T01680133  RH  080%=      5-min Rain = 0
KES1 241023Z 34002KT 17/13 A2995 RMK A01 T01670133  RH  081%=      5-min Rain = 0
KES1 241024Z 35001KT 17/13 A2995 RMK A01 T01650132  RH  081%=      5-min Rain = 0
KES1 241025Z 00002KT 16/13 A2995 RMK A01 T01630131  RH  082%=      5-min Rain = 0
KES1 241026Z 00002KT 16/13 A2995 RMK A01 T01620132  RH  083%=      5-min Rain = 0
KES1 241027Z 36002KT 16/13 A2995 RMK A01 T01610133  RH  083%=      5-min Rain = 0
KES1 241028Z 35002KT 16/13 A2995 RMK A01 T01620133  RH  083%=      5-min Rain = 0
KES1 241029Z 35003KT 16/13 A2995 RMK A01 T01630133  RH  083%=      5-min Rain = 0
KES1 241030Z 35003KT 16/13 A2995 RMK A01 T01630133  RH  083%=      5-min Rain = 0
KES1 241031Z 35003KT 16/13 A2995 RMK A01 T01640134  RH  082%=      5-min Rain = 0
KES1 241032Z 35003KT 17/13 A2995 RMK A01 T01660134  RH  082%=      5-min Rain = 0
KES1 241033Z 35002KT 17/14 A2995 RMK A01 T01670135  RH  081%=      5-min Rain = 0
KES1 241034Z 36001KT 17/13 A2995 RMK A01 T01670134  RH  081%=      5-min Rain = 0
KES1 241035Z 00001KT 17/13 A2995 RMK A01 T01650132  RH  081%=      5-min Rain = 0
KES1 241036Z 01001KT 16/13 A2995 RMK A01 T01630131  RH  082%=      5-min Rain = 0
KES1 241037Z 05001KT 16/13 A2995 RMK A01 T01610131  RH  082%=      5-min Rain = 0
KES1 241038Z 05001KT 16/13 A2995 RMK A01 T01610131  RH  083%=      5-min Rain = 0
KES1 241039Z 04001KT 16/13 A2995 RMK A01 T01610132  RH  083%=      5-min Rain = 0
KES1 241040Z 04001KT 16/13 A2995 RMK A01 T01600132  RH  083%=      5-min Rain = 0
KES1 241041Z 05002KT 16/13 A2995 RMK A01 T01610132  RH  083%=      5-min Rain = 0
KES1 241042Z 06002KT 16/13 A2995 RMK A01 T01610132  RH  083%=      5-min Rain = 0
KES1 241043Z 06002KT 16/13 A2995 RMK A01 T01610132  RH  083%=      5-min Rain = 0
KES1 241044Z 06002KT 16/13 A2995 RMK A01 T01610132  RH  083%=      5-min Rain = 0
KES1 241045Z 07002KT 16/13 A2995 RMK A01 T01610132  RH  083%=      5-min Rain = 0
KES1 241046Z 07002KT 16/13 A2995 RMK A01 T01610132  RH  083%=      5-min Rain = 0
KES1 241047Z 07003KT 16/13 A2995 RMK A01 T01610132  RH  083%=      5-min Rain = 0
KES1 241048Z 06003KT 16/13 A2995 RMK A01 T01620132  RH  082%=      5-min Rain = 0
KES1 241049Z 06004KT 16/13 A2995 RMK A01 T01630131  RH  081%=      5-min Rain = 0
KES1 241050Z 05004KT 17/13 A2995 RMK A01 T01650131  RH  080%=      5-min Rain = 0
KES1 241051Z 05004KT 17/13 A2995 RMK A01 T01660131  RH  080%=      5-min Rain = 0
KES1 241052Z 05004KT 17/13 A2995 RMK A01 T01670131  RH  079%=      5-min Rain = 0
KES1 241053Z 05004KT 17/13 A2995 RMK A01 T01670130  RH  079%=      5-min Rain = 0
KES1 241054Z 05004KT 17/13 A2995 RMK A01 T01680130  RH  078%=      5-min Rain = 0
KES1 241055Z 05004KT 17/13 A2995 RMK A01 T01680130  RH  078%=      5-min Rain = 0
KES1 241056Z 05004KT 17/13 A2995 RMK A01 T01680130  RH  078%=      5-min Rain = 0
KES1 241057Z 05004KT 17/13 A2995 RMK A01 T01680130  RH  078%=      5-min Rain = 0
KES1 241058Z 04004KT 17/13 A2996 RMK A01 T01680129  RH  078%=      5-min Rain = 0
KES1 241059Z 04004KT 17/13 A2996 RMK A01 T01680128  RH  077%=      5-min Rain = 0
KES1 241100Z 04004KT 17/13 A2996 RMK A01 T01680127  RH  077%=      5-min Rain = 0
KES1 241101Z 04004KT 17/13 A2996 RMK A01 T01690127  RH  076%=      5-min Rain = 0
KES1 241102Z 04004KT 17/13 A2996 RMK A01 T01700128  RH  076%=      5-min Rain = 0
KES1 241103Z 05004KT 17/13 A2996 RMK A01 T01710128  RH  076%=      5-min Rain = 0
KES1 241104Z 04003KT 17/13 A2996 RMK A01 T01700127  RH  076%=      5-min Rain = 0
KES1 241105Z 04003KT 17/13 A2996 RMK A01 T01710127  RH  075%=      5-min Rain = 0
KES1 241106Z 04003KT 17/13 A2996 RMK A01 T01710127  RH  075%=      5-min Rain = 0
KES1 241107Z 04002KT 17/13 A2996 RMK A01 T01700126  RH  075%=      5-min Rain = 0
KES1 241108Z 04001KT 17/13 A2996 RMK A01 T01710127  RH  075%=      5-min Rain = 0
KES1 241109Z 02001KT 17/13 A2996 RMK A01 T01700128  RH  076%=      5-min Rain = 0
KES1 241110Z 36001KT 17/13 A2996 RMK A01 T01700128  RH  076%=      5-min Rain = 0
KES1 241111Z 35001KT 17/13 A2996 RMK A01 T01700128  RH  076%=      5-min Rain = 0
KES1 241112Z 33002KT 17/13 A2996 RMK A01 T01700128  RH  076%=      5-min Rain = 0
KES1 241113Z 33002KT 17/13 A2996 RMK A01 T01700127  RH  076%=      5-min Rain = 0
KES1 241114Z 32001KT 17/13 A2996 RMK A01 T01700127  RH  076%=      5-min Rain = 0
KES1 241115Z 32001KT 17/13 A2996 RMK A01 T01710128  RH  076%=      5-min Rain = 0
KES1 241116Z 34001KT 17/13 A2996 RMK A01 T01710128  RH  076%=      5-min Rain = 0
KES1 241117Z 35000KT 17/13 A2996 RMK A01 T01710128  RH  076%=      5-min Rain = 0
KES1 241118Z 00000KT 17/13 A2996 RMK A01 T01710130  RH  077%=      5-min Rain = 0
KES1 241119Z 00000KT 17/13 A2996 RMK A01 T01700129  RH  077%=      5-min Rain = 0
KES1 241120Z 00000KT 17/13 A2996 RMK A01 T01690128  RH  077%=      5-min Rain = 0
KES1 241121Z 35000KT 17/13 A2996 RMK A01 T01680129  RH  077%=      5-min Rain = 0
KES1 241122Z 35000KT 17/13 A2996 RMK A01 T01680129  RH  077%=      5-min Rain = 0
KES1 241123Z 01000KT 17/13 A2996 RMK A01 T01680127  RH  077%=      5-min Rain = 0
KES1 241124Z 01000KT 17/13 A2996 RMK A01 T01680127  RH  077%=      5-min Rain = 0
KES1 241125Z 01001KT 17/13 A2996 RMK A01 T01690127  RH  076%=      5-min Rain = 0
KES1 241126Z 01001KT 17/13 A2996 RMK A01 T01700127  RH  076%=      5-min Rain = 0
KES1 241127Z 02001KT 17/13 A2996 RMK A01 T01690126  RH  076%=      5-min Rain = 0
KES1 241128Z 03001KT 17/13 A2996 RMK A01 T01690126  RH  076%=      5-min Rain = 0
KES1 241129Z 01000KT 17/13 A2996 RMK A01 T01680125  RH  076%=      5-min Rain = 0
KES1 241130Z 01001KT 17/13 A2996 RMK A01 T01670125  RH  076%=      5-min Rain = 0
KES1 241131Z 02001KT 17/13 A2996 RMK A01 T01670125  RH  076%=      5-min Rain = 0
KES1 241132Z 03002KT 17/13 A2996 RMK A01 T01670125  RH  076%=      5-min Rain = 0
KES1 241133Z 03001KT 17/13 A2996 RMK A01 T01680125  RH  076%=      5-min Rain = 0
KES1 241134Z 03001KT 17/12 A2996 RMK A01 T01670124  RH  076%=      5-min Rain = 0
KES1 241135Z 04001KT 16/12 A2996 RMK A01 T01640124  RH  077%=      5-min Rain = 0
KES1 241136Z 05001KT 16/12 A2997 RMK A01 T01620124  RH  078%=      5-min Rain = 0
KES1 241137Z 05001KT 16/12 A2997 RMK A01 T01610124  RH  079%=      5-min Rain = 0
KES1 241138Z 05001KT 16/12 A2997 RMK A01 T01610124  RH  079%=      5-min Rain = 0
KES1 241139Z 05001KT 16/12 A2997 RMK A01 T01610124  RH  079%=      5-min Rain = 0
KES1 241140Z 05001KT 16/12 A2997 RMK A01 T01620123  RH  078%=      5-min Rain = 0
KES1 241141Z 05000KT 16/12 A2997 RMK A01 T01630124  RH  077%=      5-min Rain = 0
KES1 241142Z 00000KT 16/12 A2997 RMK A01 T01640124  RH  077%=      5-min Rain = 0
KES1 241143Z 00000KT 17/12 A2997 RMK A01 T01650124  RH  076%=      5-min Rain = 0
KES1 241144Z 00000KT 17/12 A2997 RMK A01 T01660124  RH  076%=      5-min Rain = 0
KES1 241145Z 00000KT 17/12 A2997 RMK A01 T01670124  RH  076%=      5-min Rain = 0
KES1 241146Z 00000KT 17/12 A2997 RMK A01 T01670124  RH  075%=      5-min Rain = 0
KES1 241147Z 05000KT 17/12 A2997 RMK A01 T01680123  RH  075%=      5-min Rain = 0
KES1 241148Z 05001KT 17/12 A2997 RMK A01 T01690123  RH  074%=      5-min Rain = 0
KES1 241149Z 05000KT 17/12 A2997 RMK A01 T01690124  RH  074%=      5-min Rain = 0
KES1 241150Z 00000KT 17/12 A2997 RMK A01 T01700124  RH  074%=      5-min Rain = 0
KES1 241151Z 00000KT 17/12 A2997 RMK A01 T01710124  RH  074%=      5-min Rain = 0
KES1 241152Z 00000KT 17/12 A2997 RMK A01 T01720124  RH  074%=      5-min Rain = 0
KES1 241153Z 00000KT 17/13 A2997 RMK A01 T01720125  RH  074%=      5-min Rain = 0
KES1 241154Z 00000KT 17/13 A2997 RMK A01 T01720126  RH  074%=      5-min Rain = 0
KES1 241155Z 00000KT 17/13 A2997 RMK A01 T01710125  RH  074%=      5-min Rain = 0
KES1 241156Z 00000KT 17/13 A2997 RMK A01 T01710125  RH  074%=      5-min Rain = 0
KES1 241157Z 00000KT 17/13 A2997 RMK A01 T01710126  RH  075%=      5-min Rain = 0
KES1 241158Z 05001KT 17/13 A2997 RMK A01 T01700127  RH  076%=      5-min Rain = 0
KES1 241159Z 05001KT 17/13 A2997 RMK A01 T01700127  RH  076%=      5-min Rain = 0
KES1 241200Z 28002KT 17/13 A2997 RMK A01 T01690127  RH  076%=      5-min Rain = 0
KES1 241201Z 26002KT 17/13 A2997 RMK A01 T01680127  RH  077%=      5-min Rain = 0
KES1 241202Z 26002KT 17/13 A2997 RMK A01 T01660127  RH  078%=      5-min Rain = 0
KES1 241203Z 26002KT 17/13 A2997 RMK A01 T01650128  RH  078%=      5-min Rain = 0
KES1 241204Z 26002KT 16/13 A2997 RMK A01 T01640128  RH  079%=      5-min Rain = 0
KES1 241205Z 26003KT 16/13 A2997 RMK A01 T01630128  RH  079%=      5-min Rain = 0
KES1 241206Z 26002KT 16/13 A2997 RMK A01 T01630128  RH  080%=      5-min Rain = 0
KES1 241207Z 26002KT 16/13 A2998 RMK A01 T01630128  RH  080%=      5-min Rain = 0
KES1 241208Z 27002KT 16/13 A2998 RMK A01 T01630128  RH  080%=      5-min Rain = 0
KES1 241209Z 27002KT 16/13 A2998 RMK A01 T01630127  RH  079%=      5-min Rain = 0
KES1 241210Z 28002KT 16/13 A2998 RMK A01 T01640128  RH  079%=      5-min Rain = 0
KES1 241211Z 28002KT 16/13 A2998 RMK A01 T01630127  RH  079%=      5-min Rain = 0
KES1 241212Z 30002KT 16/13 A2998 RMK A01 T01630127  RH  079%=      5-min Rain = 0
KES1 241213Z 30002KT 16/13 A2998 RMK A01 T01630127  RH  079%=      5-min Rain = 0
KES1 241214Z 31003KT 16/13 A2998 RMK A01 T01630127  RH  079%=      5-min Rain = 0
KES1 241215Z 32003KT 16/13 A2998 RMK A01 T01630127  RH  079%=      5-min Rain = 0
KES1 241216Z 33003KT 16/13 A2998 RMK A01 T01630127  RH  079%=      5-min Rain = 0
KES1 241217Z 32003KT 16/13 A2998 RMK A01 T01630128  RH  079%=      5-min Rain = 0
KES1 241218Z 32003KT 16/13 A2998 RMK A01 T01630128  RH  080%=      5-min Rain = 0
KES1 241219Z 32003KT 16/13 A2998 RMK A01 T01640129  RH  080%=      5-min Rain = 0
KES1 241220Z 32003KT 17/13 A2998 RMK A01 T01650130  RH  080%=      5-min Rain = 0
KES1 241221Z 32003KT 17/13 A2998 RMK A01 T01660130  RH  079%=      5-min Rain = 0
KES1 241222Z 31003KT 17/13 A2998 RMK A01 T01670130  RH  079%=      5-min Rain = 0
KES1 241223Z 31003KT 17/13 A2998 RMK A01 T01680130  RH  078%=      5-min Rain = 0
KES1 241224Z 30003KT 17/13 A2998 RMK A01 T01680129  RH  078%=      5-min Rain = 0
KES1 241225Z 31002KT 17/13 A2998 RMK A01 T01690130  RH  078%=      5-min Rain = 0
KES1 241226Z 32002KT 17/13 A2998 RMK A01 T01690130  RH  078%=      5-min Rain = 0
KES1 241227Z 32002KT 17/13 A2998 RMK A01 T01700131  RH  077%=      5-min Rain = 0
KES1 241228Z 33001KT 17/13 A2998 RMK A01 T01720132  RH  078%=      5-min Rain = 0
KES1 241229Z 34001KT 17/13 A2998 RMK A01 T01730133  RH  077%=      5-min Rain = 0
KES1 241230Z 32002KT 17/13 A2998 RMK A01 T01740132  RH  076%=      5-min Rain = 0
KES1 241231Z 33002KT 18/13 A2998 RMK A01 T01760132  RH  076%=      5-min Rain = 0
KES1 241232Z 33002KT 18/13 A2998 RMK A01 T01770133  RH  075%=      5-min Rain = 0
KES1 241233Z 33002KT 18/14 A2998 RMK A01 T01780135  RH  076%=      5-min Rain = 0
KES1 241234Z 32002KT 18/14 A2998 RMK A01 T01800136  RH  075%=      5-min Rain = 0
KES1 241235Z 32002KT 18/14 A2998 RMK A01 T01820137  RH  075%=      5-min Rain = 0
KES1 241236Z 32003KT 19/14 A2998 RMK A01 T01850137  RH  074%=      5-min Rain = 0
KES1 241237Z 32003KT 19/14 A2998 RMK A01 T01870137  RH  073%=      5-min Rain = 0
KES1 241238Z 32003KT 19/14 A2998 RMK A01 T01880136  RH  072%=      5-min Rain = 0
KES1 241239Z 32003KT 19/14 A2998 RMK A01 T01880137  RH  072%=      5-min Rain = 0
KES1 241240Z 32004KT 19/14 A2998 RMK A01 T01880137  RH  072%=      5-min Rain = 0
KES1 241241Z 33004KT 19/14 A2998 RMK A01 T01880136  RH  072%=      5-min Rain = 0
KES1 241242Z 33004KT 19/14 A2998 RMK A01 T01880135  RH  071%=      5-min Rain = 0
KES1 241243Z 33003KT 19/13 A2998 RMK A01 T01880134  RH  071%=      5-min Rain = 0
KES1 241244Z 33004KT 19/13 A2998 RMK A01 T01870134  RH  071%=      5-min Rain = 0
KES1 241245Z 33003KT 19/13 A2999 RMK A01 T01870133  RH  071%=      5-min Rain = 0
KES1 241246Z 33003KT 19/13 A2999 RMK A01 T01870134  RH  071%=      5-min Rain = 0
KES1 241247Z 33003KT 19/13 A2999 RMK A01 T01870133  RH  071%=      5-min Rain = 0
KES1 241248Z 33003KT 19/13 A2999 RMK A01 T01880134  RH  071%=      5-min Rain = 0
KES1 241249Z 34003KT 19/13 A2999 RMK A01 T01890134  RH  070%=      5-min Rain = 0
KES1 241250Z 34003KT 19/14 A2999 RMK A01 T01900135  RH  071%=      5-min Rain = 0
KES1 241251Z 33004KT 19/14 A2999 RMK A01 T01900135  RH  071%=      5-min Rain = 0
KES1 241252Z 33004KT 19/14 A2998 RMK A01 T01910135  RH  070%=      5-min Rain = 0
KES1 241253Z 33004KT 19/14 A2998 RMK A01 T01920135  RH  070%=      5-min Rain = 0
KES1 241254Z 33004KT 19/14 A2998 RMK A01 T01930136  RH  070%=      5-min Rain = 0
KES1 241255Z 33005KT 19/14 A2998 RMK A01 T01940135  RH  068%=      5-min Rain = 0
KES1 241256Z 33005KT 20/14 A2998 RMK A01 T01960136  RH  068%=      5-min Rain = 0
KES1 241257Z 33004KT 20/14 A2998 RMK A01 T01970135  RH  068%=      5-min Rain = 0
KES1 241258Z 33006KT 20/14 A2998 RMK A01 T01980135  RH  067%=      5-min Rain = 0
KES1 241259Z 33005KT 20/13 A2998 RMK A01 T01980134  RH  066%=      5-min Rain = 0
KES1 241300Z 34005KT 20/13 A2998 RMK A01 T01990134  RH  066%=      5-min Rain = 0
KES1 241301Z 34005KT 20/14 A2998 RMK A01 T02000135  RH  066%=      5-min Rain = 0
KES1 241302Z 35005KT 20/14 A2999 RMK A01 T02000135  RH  066%=      5-min Rain = 0
KES1 241303Z 35004KT 20/14 A2999 RMK A01 T02010135  RH  066%=      5-min Rain = 0
KES1 241304Z 35005KT 20/13 A2998 RMK A01 T02010133  RH  065%=      5-min Rain = 0
KES1 241305Z 34005KT 20/13 A2998 RMK A01 T02020132  RH  064%=      5-min Rain = 0
KES1 241306Z 35004KT 20/13 A2999 RMK A01 T02030130  RH  063%=      5-min Rain = 0
KES1 241307Z 01004KT 20/13 A2999 RMK A01 T02040131  RH  063%=      5-min Rain = 0
KES1 241308Z 03004KT 21/13 A2999 RMK A01 T02060130  RH  062%=      5-min Rain = 0
KES1 241309Z 02005KT 21/13 A2999 RMK A01 T02070129  RH  061%=      5-min Rain = 0
KES1 241310Z 02004KT 21/13 A2999 RMK A01 T02080128  RH  060%=      5-min Rain = 0
KES1 241311Z 00005KT 21/13 A2999 RMK A01 T02090129  RH  060%=      5-min Rain = 0
KES1 241312Z 00005KT 21/13 A2999 RMK A01 T02100127  RH  059%=      5-min Rain = 0
KES1 241313Z 00005KT 21/12 A2999 RMK A01 T02110124  RH  057%=      5-min Rain = 0
KES1 241314Z 01004KT 21/13 A2999 RMK A01 T02110126  RH  058%=      5-min Rain = 0
KES1 241315Z 36005KT 21/13 A2999 RMK A01 T02120127  RH  058%=      5-min Rain = 0
KES1 241316Z 00006KT 21/13 A2999 RMK A01 T02130126  RH  058%=      5-min Rain = 0
KES1 241317Z 00006KT 21/13 A2999 RMK A01 T02120125  RH  057%=      5-min Rain = 0
KES1 241318Z 02004KT 21/13 A2999 RMK A01 T02120125  RH  058%=      5-min Rain = 0
KES1 241319Z 36004KT 21/13 A2999 RMK A01 T02140125  RH  057%=      5-min Rain = 0
KES1 241320Z 36006KT 21/12 A2999 RMK A01 T02140124  RH  057%=      5-min Rain = 0
KES1 241321Z 36005KT 21/13 A2999 RMK A01 T02130125  RH  057%=      5-min Rain = 0
KES1 241322Z 01004KT 21/12 A2999 RMK A01 T02120123  RH  057%=      5-min Rain = 0
KES1 241323Z 00004KT 21/12 A2999 RMK A01 T02120123  RH  057%=      5-min Rain = 0
KES1 241324Z 01005KT 21/12 A2999 RMK A01 T02120121  RH  056%=      5-min Rain = 0
KES1 241325Z 04005KT 21/13 A2999 RMK A01 T02130126  RH  058%=      5-min Rain = 0
KES1 241326Z 05006KT 22/12 A2999 RMK A01 T02150121  RH  055%=      5-min Rain = 0
KES1 241327Z 05005KT 22/12 A2999 RMK A01 T02160121  RH  055%=      5-min Rain = 0
KES1 241328Z 04005KT 22/12 A2999 RMK A01 T02170122  RH  054%=      5-min Rain = 0
KES1 241329Z 01006KT 22/12 A2999 RMK A01 T02190122  RH  054%=      5-min Rain = 0
KES1 241330Z 03006KT 22/12 A2999 RMK A01 T02190122  RH  054%=      5-min Rain = 0
KES1 241331Z 02005KT 22/12 A2999 RMK A01 T02190121  RH  054%=      5-min Rain = 0
KES1 241332Z 02005KT 22/12 A2999 RMK A01 T02200124  RH  055%=      5-min Rain = 0
KES1 241333Z 02006KT 22/12 A2999 RMK A01 T02210123  RH  054%=      5-min Rain = 0
KES1 241334Z 01006KT 22/12 A2999 RMK A01 T02200122  RH  054%=      5-min Rain = 0
KES1 241335Z 01007KT 22/12 A2999 RMK A01 T02190120  RH  054%=      5-min Rain = 0
KES1 241336Z 01006KT 22/12 A2999 RMK A01 T02180120  RH  054%=      5-min Rain = 0
KES1 241337Z 02006KT 22/12 A2999 RMK A01 T02170121  RH  054%=      5-min Rain = 0
KES1 241338Z 02008KT 22/12 A2999 RMK A01 T02160120  RH  054%=      5-min Rain = 0
KES1 241339Z 03007KT 22/12 A2999 RMK A01 T02160121  RH  054%=      5-min Rain = 0
KES1 241340Z 03007KT 22/12 A2999 RMK A01 T02180121  RH  054%=      5-min Rain = 0
KES1 241341Z 03007KT 22/12 A2999 RMK A01 T02190121  RH  054%=      5-min Rain = 0
KES1 241342Z 02007KT 22/12 A2999 RMK A01 T02200123  RH  054%=      5-min Rain = 0
KES1 241343Z 03005KT 22/12 A2999 RMK A01 T02200121  RH  053%=      5-min Rain = 0
KES1 241344Z 03006KT 22/12 A2999 RMK A01 T02210122  RH  053%=      5-min Rain = 0
KES1 241345Z 01005KT 22/12 A2999 RMK A01 T02210121  RH  053%=      5-min Rain = 0
KES1 241346Z 01006KT 22/12 A2999 RMK A01 T02220121  RH  053%=      5-min Rain = 0
KES1 241347Z 01005KT 22/12 A2999 RMK A01 T02210120  RH  053%=      5-min Rain = 0
KES1 241348Z 02005KT 22/12 A2999 RMK A01 T02200121  RH  054%=      5-min Rain = 0
KES1 241349Z 03004KT 22/12 A2999 RMK A01 T02200122  RH  054%=      5-min Rain = 0
KES1 241350Z 02004KT 22/12 A2999 RMK A01 T02200122  RH  054%=      5-min Rain = 0
KES1 241351Z 01004KT 22/12 A2999 RMK A01 T02210124  RH  054%=      5-min Rain = 0
KES1 241352Z 01006KT 22/12 A2999 RMK A01 T02230121  RH  052%=      5-min Rain = 0
KES1 241353Z 01005KT 22/12 A2999 RMK A01 T02230121  RH  053%=      5-min Rain = 0
KES1 241354Z 00005KT 22/12 A2999 RMK A01 T02220121  RH  053%=      5-min Rain = 0
KES1 241355Z 35006KT 22/12 A2999 RMK A01 T02220124  RH  054%=      5-min Rain = 0
KES1 241356Z 36006KT 22/12 A2999 RMK A01 T02220122  RH  053%=      5-min Rain = 0
KES1 241357Z 36006KT 22/12 A2999 RMK A01 T02220121  RH  053%=      5-min Rain = 0
KES1 241358Z 35006KT 22/12 A2999 RMK A01 T02210118  RH  052%=      5-min Rain = 0
KES1 241359Z 35007KT 22/12 A2999 RMK A01 T02200120  RH  053%=      5-min Rain = 0
KES1 241400Z 35006KT 22/12 A2999 RMK A01 T02200123  RH  054%=      5-min Rain = 0
KES1 241401Z 35006KT 22/12 A2999 RMK A01 T02220122  RH  053%=      5-min Rain = 0
KES1 241402Z 35006KT 22/12 A2999 RMK A01 T02220124  RH  054%=      5-min Rain = 0
KES1 241403Z 35006KT 22/12 A2999 RMK A01 T02220122  RH  053%=      5-min Rain = 0
KES1 241404Z 00004KT 22/12 A2999 RMK A01 T02200124  RH  054%=      5-min Rain = 0
KES1 241405Z 01003KT 22/12 A2999 RMK A01 T02190123  RH  055%=      5-min Rain = 0
KES1 241406Z 36006KT 22/12 A2999 RMK A01 T02200123  RH  054%=      5-min Rain = 0
KES1 241407Z 35008KT 22/12 A2999 RMK A01 T02210122  RH  053%=      5-min Rain = 0
KES1 241408Z 35007KT 22/12 A2999 RMK A01 T02220120  RH  052%=      5-min Rain = 0
KES1 241409Z 35006KT 22/12 A30 RMK A01 T02210121  RH  053%=      5-min Rain = 0
KES1 241410Z 00005KT 22/12 A30 RMK A01 T02200121  RH  053%=      5-min Rain = 0
KES1 241411Z 01004KT 22/12 A30 RMK A01 T02200122  RH  054%=      5-min Rain = 0
KES1 241412Z 02007KT 22/12 A30 RMK A01 T02220123  RH  053%=      5-min Rain = 0
KES1 241413Z 00007KT 22/12 A30 RMK A01 T02240122  RH  052%=      5-min Rain = 0
KES1 241414Z 00007KT 23/12 A2999 RMK A01 T02250119  RH  051%=      5-min Rain = 0
KES1 241415Z 00008KT 23/12 A2999 RMK A01 T02250119  RH  051%=      5-min Rain = 0
KES1 241416Z 00007KT 23/12 A2999 RMK A01 T02250119  RH  051%=      5-min Rain = 0
KES1 241417Z 02008KT 23/12 A2999 RMK A01 T02260122  RH  052%=      5-min Rain = 0
KES1 241418Z 03007KT 23/12 A2999 RMK A01 T02290119  RH  050%=      5-min Rain = 0
KES1 241419Z 03007KT 23/12 A2999 RMK A01 T02320120  RH  049%=      5-min Rain = 0
KES1 241420Z 04007KT 23/12 A2999 RMK A01 T02330122  RH  049%=      5-min Rain = 0
KES1 241421Z 04007KT 23/12 A2999 RMK A01 T02340120  RH  049%=      5-min Rain = 0
KES1 241422Z 03006KT 23/12 A2999 RMK A01 T02330121  RH  049%=      5-min Rain = 0
KES1 241423Z 01006KT 23/12 A2999 RMK A01 T02330123  RH  050%=      5-min Rain = 0
KES1 241424Z 01006KT 24/12 A2999 RMK A01 T02350124  RH  050%=      5-min Rain = 0
KES1 241425Z 01008KT 24/12 A2999 RMK A01 T02350122  RH  049%=      5-min Rain = 0
KES1 241426Z 01008KT 23/12 A2999 RMK A01 T02330121  RH  049%=      5-min Rain = 0
KES1 241427Z 00008KT 23/12 A2999 RMK A01 T02300118  RH  049%=      5-min Rain = 0
KES1 241428Z 36009KT 23/12 A2999 RMK A01 T02290119  RH  050%=      5-min Rain = 0
KES1 241429Z 00009KT 23/12 A2999 RMK A01 T02290116  RH  049%=      5-min Rain = 0
KES1 241430Z 01008KT 23/12 A2999 RMK A01 T02290120  RH  050%=      5-min Rain = 0
KES1 241431Z 02007KT 23/12 A2999 RMK A01 T02300120  RH  050%=      5-min Rain = 0
KES1 241432Z 01006KT 23/12 A2999 RMK A01 T02330121  RH  049%=      5-min Rain = 0
KES1 241433Z 00007KT 23/12 A2999 RMK A01 T02340120  RH  049%=      5-min Rain = 0
KES1 241434Z 00008KT 23/12 A2999 RMK A01 T02320117  RH  048%=      5-min Rain = 0
KES1 241435Z 01006KT 23/12 A2999 RMK A01 T02310118  RH  049%=      5-min Rain = 0
KES1 241436Z 00007KT 23/12 A2999 RMK A01 T02320118  RH  048%=      5-min Rain = 0
KES1 241437Z 01007KT 23/12 A2999 RMK A01 T02330116  RH  048%=      5-min Rain = 0
KES1 241438Z 02004KT 23/12 A2999 RMK A01 T02320119  RH  049%=      5-min Rain = 0
KES1 241439Z 02007KT 24/12 A2999 RMK A01 T02360122  RH  049%=      5-min Rain = 0
KES1 241440Z 02007KT 24/12 A30 RMK A01 T02380118  RH  047%=      5-min Rain = 0
KES1 241441Z 01005KT 24/12 A30 RMK A01 T02360118  RH  047%=      5-min Rain = 0
KES1 241442Z 01007KT 24/12 A30 RMK A01 T02350118  RH  048%=      5-min Rain = 0
KES1 241443Z 01009KT 24/12 A30 RMK A01 T02350119  RH  048%=      5-min Rain = 0
KES1 241444Z 01006KT 24/12 A30 RMK A01 T02350119  RH  048%=      5-min Rain = 0
KES1 241445Z 01004KT 23/12 A30 RMK A01 T02340118  RH  048%=      5-min Rain = 0
KES1 241446Z 03005KT 23/12 A30 RMK A01 T02330119  RH  049%=      5-min Rain = 0
KES1 241447Z 04004KT 24/12 A30 RMK A01 T02370124  RH  049%=      5-min Rain = 0
KES1 241448Z 03005KT 24/12 A30 RMK A01 T02420124  RH  048%=      5-min Rain = 0
KES1 241449Z 02005KT 24/12 A30 RMK A01 T02440122  RH  046%=      5-min Rain = 0
KES1 241450Z 02003KT 24/12 A30 RMK A01 T02440123  RH  047%=      5-min Rain = 0
KES1 241451Z 05004KT 24/12 A30 RMK A01 T02440123  RH  047%=      5-min Rain = 0
KES1 241452Z 01004KT 25/12 A30 RMK A01 T02450124  RH  047%=      5-min Rain = 0
KES1 241453Z 01006KT 25/12 A30 RMK A01 T02450123  RH  047%=      5-min Rain = 0
KES1 241454Z 00006KT 24/12 A30 RMK A01 T02440122  RH  046%=      5-min Rain = 0
KES1 241455Z 03006KT 24/12 A30 RMK A01 T02420121  RH  047%=      5-min Rain = 0
KES1 241456Z 06005KT 24/12 A30 RMK A01 T02430124  RH  048%=      5-min Rain = 0
KES1 241457Z 02006KT 25/12 A30 RMK A01 T02460122  RH  046%=      5-min Rain = 0
KES1 241458Z 02005KT 25/12 A30 RMK A01 T02460120  RH  045%=      5-min Rain = 0
KES1 241459Z 02006KT 25/12 A30 RMK A01 T02460118  RH  045%=      5-min Rain = 0
KES1 241500Z 03006KT 25/12 A30 RMK A01 T02450119  RH  045%=      5-min Rain = 0
KES1 241501Z 05005KT 24/12 A30 RMK A01 T02430120  RH  046%=      5-min Rain = 0
KES1 241502Z 04003KT 24/12 A30 RMK A01 T02440120  RH  046%=      5-min Rain = 0
KES1 241503Z 00003KT 25/12 A2999 RMK A01 T02450120  RH  046%=      5-min Rain = 0
KES1 241504Z 01006KT 25/12 A2999 RMK A01 T02450120  RH  046%=      5-min Rain = 0
KES1 241505Z 00007KT 25/12 A2999 RMK A01 T02450120  RH  045%=      5-min Rain = 0
KES1 241506Z 00005KT 25/12 A2999 RMK A01 T02450120  RH  046%=      5-min Rain = 0
KES1 241507Z 02005KT 25/12 A30 RMK A01 T02450120  RH  046%=      5-min Rain = 0
KES1 241508Z 06004KT 25/12 A30 RMK A01 T02470122  RH  046%=      5-min Rain = 0
KES1 241509Z 02007KT 25/12 A30 RMK A01 T02510119  RH  044%=      5-min Rain = 0
KES1 241510Z 03006KT 25/12 A30 RMK A01 T02510118  RH  043%=      5-min Rain = 0
KES1 241511Z 02006KT 25/12 A30 RMK A01 T02520118  RH  043%=      5-min Rain = 0
KES1 241512Z 01006KT 25/11 A30 RMK A01 T02540114  RH  041%=      5-min Rain = 0
KES1 241513Z 01007KT 25/12 A2999 RMK A01 T02520115  RH  042%=      5-min Rain = 0
KES1 241514Z 01008KT 25/11 A2999 RMK A01 T02500113  RH  042%=      5-min Rain = 0
KES1 241515Z 02007KT 25/11 A2999 RMK A01 T02470113  RH  043%=      5-min Rain = 0
KES1 241516Z 02006KT 25/11 A2999 RMK A01 T02470113  RH  043%=      5-min Rain = 0
KES1 241517Z 03005KT 25/12 A2999 RMK A01 T02460115  RH  044%=      5-min Rain = 0
KES1 241518Z 03007KT 25/12 A2999 RMK A01 T02480115  RH  043%=      5-min Rain = 0
KES1 241519Z 02007KT 25/11 A2999 RMK A01 T02510113  RH  042%=      5-min Rain = 0
KES1 241520Z 01005KT 25/11 A2999 RMK A01 T02500113  RH  042%=      5-min Rain = 0
KES1 241521Z 02005KT 25/11 A2999 RMK A01 T02500112  RH  042%=      5-min Rain = 0
KES1 241522Z 04004KT 25/11 A2999 RMK A01 T02500111  RH  042%=      5-min Rain = 0
KES1 241523Z 06005KT 25/12 A2999 RMK A01 T02520117  RH  043%=      5-min Rain = 0
KES1 241524Z 06005KT 26/11 A2999 RMK A01 T02570112  RH  040%=      5-min Rain = 0
KES1 241525Z 04004KT 26/11 A2999 RMK A01 T02570111  RH  040%=      5-min Rain = 0
KES1 241526Z 05005KT 26/11 A2999 RMK A01 T02550112  RH  041%=      5-min Rain = 0
KES1 241527Z 03005KT 26/12 A2999 RMK A01 T02570117  RH  042%=      5-min Rain = 0
KES1 241528Z 01004KT 26/11 A2999 RMK A01 T02590113  RH  040%=      5-min Rain = 0
KES1 241529Z 36004KT 26/11 A2999 RMK A01 T02580112  RH  040%=      5-min Rain = 0
KES1 241530Z 36005KT 26/11 A2999 RMK A01 T02560113  RH  041%=      5-min Rain = 0
KES1 241531Z 00004KT 25/11 A2999 RMK A01 T02530113  RH  041%=      5-min Rain = 0
KES1 241532Z 02004KT 25/11 A2999 RMK A01 T02540110  RH  040%=      5-min Rain = 0
KES1 241533Z 04006KT 25/11 A2999 RMK A01 T02530112  RH  041%=      5-min Rain = 0
KES1 241534Z 05006KT 26/12 A2999 RMK A01 T02570115  RH  041%=      5-min Rain = 0
KES1 241535Z 08006KT 26/11 A2999 RMK A01 T02590113  RH  040%=      5-min Rain = 0
KES1 241536Z 10003KT 26/11 A2999 RMK A01 T02580112  RH  040%=      5-min Rain = 0
KES1 241537Z 11005KT 26/11 A2999 RMK A01 T02570113  RH  040%=      5-min Rain = 0
KES1 241538Z 10005KT 26/11 A2999 RMK A01 T02570111  RH  040%=      5-min Rain = 0
KES1 241539Z 09003KT 26/11 A2999 RMK A01 T02560109  RH  040%=      5-min Rain = 0
KES1 241540Z 05007KT 26/11 A2999 RMK A01 T02570113  RH  041%=      5-min Rain = 0
KES1 241541Z 06007KT 26/11 A2999 RMK A01 T02600112  RH  040%=      5-min Rain = 0
KES1 241542Z 05005KT 26/11 A2999 RMK A01 T02620111  RH  039%=      5-min Rain = 0
KES1 241543Z 08005KT 26/11 A2999 RMK A01 T02620111  RH  039%=      5-min Rain = 0
KES1 241544Z 08007KT 27/11 A2999 RMK A01 T02650113  RH  039%=      5-min Rain = 0
KES1 241545Z 10004KT 27/11 A2999 RMK A01 T02650110  RH  038%=      5-min Rain = 0
KES1 241546Z 08004KT 26/11 A2999 RMK A01 T02630112  RH  039%=      5-min Rain = 0
KES1 241547Z 07003KT 26/11 A2999 RMK A01 T02630107  RH  038%=      5-min Rain = 0
KES1 241548Z 10002KT 26/11 A2999 RMK A01 T02620107  RH  038%=      5-min Rain = 0
KES1 241549Z 12005KT 26/11 A2999 RMK A01 T02620109  RH  038%=      5-min Rain = 0
KES1 241550Z 11004KT 26/11 A2999 RMK A01 T02620108  RH  038%=      5-min Rain = 0
KES1 241551Z 09006KT 26/11 A2999 RMK A01 T02620110  RH  039%=      5-min Rain = 0
KES1 241552Z 08006KT 27/11 A2999 RMK A01 T02650112  RH  038%=      5-min Rain = 0
KES1 241553Z 05006KT 27/11 A2999 RMK A01 T02670110  RH  037%=      5-min Rain = 0
KES1 241554Z 06006KT 27/11 A2999 RMK A01 T02670108  RH  037%=      5-min Rain = 0
KES1 241555Z 04004KT 27/11 A2999 RMK A01 T02670108  RH  037%=      5-min Rain = 0
KES1 241556Z 03004KT 27/11 A2999 RMK A01 T02680106  RH  036%=      5-min Rain = 0
KES1 241557Z 07003KT 27/11 A2999 RMK A01 T02680107  RH  036%=      5-min Rain = 0
KES1 241558Z 08006KT 27/11 A2999 RMK A01 T02700108  RH  036%=      5-min Rain = 0
KES1 241559Z 08005KT 27/11 A2999 RMK A01 T02710107  RH  036%=      5-min Rain = 0
KES1 241600Z 10005KT 27/11 A2999 RMK A01 T02710107  RH  036%=      5-min Rain = 0
KES1 241601Z 12004KT 27/10 A2999 RMK A01 T02700104  RH  035%=      5-min Rain = 0
KES1 241602Z 13004KT 27/11 A2999 RMK A01 T02690107  RH  036%=      5-min Rain = 0
KES1 241603Z 13003KT 27/11 A2999 RMK A01 T02700107  RH  036%=      5-min Rain = 0
KES1 241604Z 13002KT 27/10 A2999 RMK A01 T02710104  RH  035%=      5-min Rain = 0
KES1 241605Z 13002KT 27/11 A2999 RMK A01 T02710108  RH  036%=      5-min Rain = 0
KES1 241606Z 09005KT 27/11 A2999 RMK A01 T02740111  RH  036%=      5-min Rain = 0
KES1 241607Z 06007KT 28/11 A2999 RMK A01 T02770111  RH  035%=      5-min Rain = 0
KES1 241608Z 08007KT 28/11 A2999 RMK A01 T02760105  RH  035%=      5-min Rain = 0
KES1 241609Z 07007KT 27/11 A2998 RMK A01 T02720106  RH  036%=      5-min Rain = 0
KES1 241610Z 05006KT 27/11 A2998 RMK A01 T02690106  RH  036%=      5-min Rain = 0
KES1 241611Z 04005KT 27/11 A2998 RMK A01 T02690105  RH  036%=      5-min Rain = 0
KES1 241612Z 08004KT 27/11 A2998 RMK A01 T02700106  RH  036%=      5-min Rain = 0
KES1 241613Z 09004KT 27/11 A2998 RMK A01 T02710109  RH  036%=      5-min Rain = 0
KES1 241614Z 07004KT 27/11 A2998 RMK A01 T02730110  RH  036%=      5-min Rain = 0
KES1 241615Z 08007KT 27/11 A2998 RMK A01 T02740110  RH  036%=      5-min Rain = 0
KES1 241616Z 07007KT 28/11 A2998 RMK A01 T02770108  RH  035%=      5-min Rain = 0
KES1 241617Z 07007KT 28/11 A2998 RMK A01 T02770109  RH  035%=      5-min Rain = 0
KES1 241618Z 08006KT 28/11 A2998 RMK A01 T02760105  RH  034%=      5-min Rain = 0
KES1 241619Z 09005KT 27/10 A2998 RMK A01 T02730102  RH  034%=      5-min Rain = 0
KES1 241620Z 08005KT 27/10 A2998 RMK A01 T02700101  RH  035%=      5-min Rain = 0
KES1 241621Z 08003KT 27/11 A2998 RMK A01 T02680106  RH  036%=      5-min Rain = 0
KES1 241622Z 03006KT 27/11 A2998 RMK A01 T02720107  RH  036%=      5-min Rain = 0
KES1 241623Z 04004KT 28/11 A2998 RMK A01 T02750108  RH  035%=      5-min Rain = 0
KES1 241624Z 06004KT 28/11 A2999 RMK A01 T02780108  RH  035%=      5-min Rain = 0
KES1 241625Z 10004KT 28/10 A2999 RMK A01 T02790103  RH  033%=      5-min Rain = 0
KES1 241626Z 12003KT 28/10 A2998 RMK A01 T02770104  RH  034%=      5-min Rain = 0
KES1 241627Z 16001KT 28/10 A2998 RMK A01 T02770102  RH  034%=      5-min Rain = 0
KES1 241628Z 23001KT 28/10 A2998 RMK A01 T02750101  RH  034%=      5-min Rain = 0
KES1 241629Z 11001KT 28/10 A2998 RMK A01 T02750102  RH  034%=      5-min Rain = 0
KES1 241630Z 07002KT 28/11 A2998 RMK A01 T02750106  RH  035%=      5-min Rain = 0
KES1 241631Z 03005KT 28/11 A2998 RMK A01 T02790109  RH  035%=      5-min Rain = 0
KES1 241632Z 04004KT 28/11 A2998 RMK A01 T02820105  RH  033%=      5-min Rain = 0
KES1 241633Z 04003KT 28/11 A2998 RMK A01 T02810107  RH  034%=      5-min Rain = 0
KES1 241634Z 04007KT 28/11 A2998 RMK A01 T02820109  RH  034%=      5-min Rain = 0
KES1 241635Z 05008KT 29/11 A2998 RMK A01 T02850107  RH  033%=      5-min Rain = 0
KES1 241636Z 04004KT 28/10 A2998 RMK A01 T02840104  RH  032%=      5-min Rain = 0
KES1 241637Z 03004KT 28/10 A2998 RMK A01 T02830103  RH  033%=      5-min Rain = 0
KES1 241638Z 00001KT 28/10 A2998 RMK A01 T02810101  RH  032%=      5-min Rain = 0
KES1 241639Z 32001KT 28/10 A2998 RMK A01 T02810103  RH  033%=      5-min Rain = 0
KES1 241640Z 00000KT 28/10 A2998 RMK A01 T02810102  RH  033%=      5-min Rain = 0
KES1 241641Z 14000KT 28/10 A2998 RMK A01 T02810102  RH  033%=      5-min Rain = 0
KES1 241642Z 10001KT 28/11 A2998 RMK A01 T02820105  RH  033%=      5-min Rain = 0
KES1 241643Z 07004KT 29/11 A2998 RMK A01 T02850108  RH  033%=      5-min Rain = 0
KES1 241644Z 11003KT 29/11 A2998 RMK A01 T02860110  RH  033%=      5-min Rain = 0
KES1 241645Z 07004KT 29/11 A2998 RMK A01 T02860109  RH  033%=      5-min Rain = 0
KES1 241646Z 08003KT 29/11 A2998 RMK A01 T02860107  RH  033%=      5-min Rain = 0
KES1 241647Z 05004KT 29/11 A2998 RMK A01 T02860107  RH  033%=      5-min Rain = 0
KES1 241648Z 04005KT 29/11 A2998 RMK A01 T02870111  RH  033%=      5-min Rain = 0
KES1 241649Z 05006KT 29/11 A2998 RMK A01 T02900109  RH  033%=      5-min Rain = 0
KES1 241650Z 05007KT 29/11 A2998 RMK A01 T02900110  RH  033%=      5-min Rain = 0
KES1 241651Z 03005KT 29/11 A2998 RMK A01 T02930113  RH  033%=      5-min Rain = 0
KES1 241652Z 02005KT 30/11 A2998 RMK A01 T02950112  RH  032%=      5-min Rain = 0
KES1 241653Z 01005KT 30/11 A2998 RMK A01 T02950111  RH  032%=      5-min Rain = 0
KES1 241654Z 06006KT 29/11 A2998 RMK A01 T02930111  RH  032%=      5-min Rain = 0
KES1 241655Z 06006KT 29/11 A2998 RMK A01 T02900108  RH  032%=      5-min Rain = 0
KES1 241656Z 08008KT 29/11 A2998 RMK A01 T02870110  RH  033%=      5-min Rain = 0
KES1 241657Z 06007KT 29/11 A2998 RMK A01 T02870107  RH  033%=      5-min Rain = 0
KES1 241658Z 04004KT 28/11 A2998 RMK A01 T02830107  RH  033%=      5-min Rain = 0
KES1 241659Z 09005KT 28/11 A2998 RMK A01 T02830111  RH  034%=      5-min Rain = 0
KES1 241700Z 12003KT 28/11 A2998 RMK A01 T02840108  RH  033%=      5-min Rain = 0
KES1 241701Z 09004KT 29/11 A2998 RMK A01 T02850110  RH  034%=      5-min Rain = 0
KES1 241702Z 08006G12KT 28/11 A2998 RMK A01 T02840109  RH  034%=      5-min Rain = 0
KES1 241703Z 06008KT 29/11 A2998 RMK A01 T02850109  RH  033%=      5-min Rain = 0
KES1 241704Z 06007KT 29/11 A2998 RMK A01 T02880110  RH  033%=      5-min Rain = 0
KES1 241705Z 07004KT 29/11 A2998 RMK A01 T02900110  RH  033%=      5-min Rain = 0
KES1 241706Z 09005KT 29/11 A2998 RMK A01 T02890109  RH  033%=      5-min Rain = 0
KES1 241707Z 03003KT 29/11 A2998 RMK A01 T02880111  RH  033%=      5-min Rain = 0
KES1 241708Z 05001KT 29/11 A2998 RMK A01 T02890108  RH  033%=      5-min Rain = 0
KES1 241709Z 09005G10KT 29/11 A2998 RMK A01 T02890111  RH  033%=      5-min Rain = 0
KES1 241710Z 10008KT 29/11 A2998 RMK A01 T02910108  RH  032%=      5-min Rain = 0
KES1 241711Z 10007KT 29/11 A2998 RMK A01 T02870108  RH  033%=      5-min Rain = 0
KES1 241712Z 12006KT 29/11 A2998 RMK A01 T02860107  RH  033%=      5-min Rain = 0
KES1 241713Z 10004KT 28/11 A2998 RMK A01 T02840108  RH  033%=      5-min Rain = 0
KES1 241714Z 11004KT 28/11 A2998 RMK A01 T02840108  RH  033%=      5-min Rain = 0
KES1 241715Z 12007KT 29/11 A2998 RMK A01 T02850111  RH  034%=      5-min Rain = 0
KES1 241716Z 15006KT 29/11 A2998 RMK A01 T02880110  RH  033%=      5-min Rain = 0
KES1 241717Z 15005KT 29/11 A2998 RMK A01 T02930113  RH  033%=      5-min Rain = 0
KES1 241718Z 12001KT 30/11 A2998 RMK A01 T02950111  RH  032%=      5-min Rain = 0
KES1 241719Z 18000KT 30/11 A2998 RMK A01 T02950107  RH  031%=      5-min Rain = 0
KES1 241720Z 15004KT 30/11 A2998 RMK A01 T02950110  RH  032%=      5-min Rain = 0
KES1 241721Z 14008KT 30/11 A2998 RMK A01 T02970112  RH  032%=      5-min Rain = 0
KES1 241722Z 13007KT 30/11 A2998 RMK A01 T02990114  RH  032%=      5-min Rain = 0
KES1 241723Z 13007KT 30/11 A2998 RMK A01 T03010113  RH  032%=      5-min Rain = 0
KES1 241724Z 14003KT 30/11 A2997 RMK A01 T03010111  RH  031%=      5-min Rain = 0
KES1 241725Z 11004G11KT 30/11 A2997 RMK A01 T03010114  RH  032%=      5-min Rain = 0
KES1 241726Z 08010KT 30/11 A2997 RMK A01 T03010110  RH  031%=      5-min Rain = 0
KES1 241727Z 07009KT 30/11 A2997 RMK A01 T02960109  RH  031%=      5-min Rain = 0
KES1 241728Z 07009KT 30/11 A2997 RMK A01 T02960111  RH  032%=      5-min Rain = 0
KES1 241729Z 08006KT 30/11 A2997 RMK A01 T02970109  RH  031%=      5-min Rain = 0
KES1 241730Z 11006KT 30/11 A2997 RMK A01 T02970112  RH  032%=      5-min Rain = 0
KES1 241731Z 12007KT 30/11 A2997 RMK A01 T02980110  RH  031%=      5-min Rain = 0
KES1 241732Z 13006KT 30/11 A2997 RMK A01 T02970110  RH  031%=      5-min Rain = 0
KES1 241733Z 14003KT 30/11 A2997 RMK A01 T02960108  RH  031%=      5-min Rain = 0
KES1 241734Z 16003KT 30/11 A2997 RMK A01 T02950106  RH  031%=      5-min Rain = 0
KES1 241735Z 10001KT 29/11 A2997 RMK A01 T02930105  RH  031%=      5-min Rain = 0
KES1 241736Z 33001KT 29/10 A2997 RMK A01 T02920104  RH  031%=      5-min Rain = 0
KES1 241737Z 07002KT 29/10 A2997 RMK A01 T02900102  RH  031%=      5-min Rain = 0
KES1 241738Z 13007KT 29/11 A2997 RMK A01 T02890109  RH  033%=      5-min Rain = 0
KES1 241739Z 13007KT 29/11 A2997 RMK A01 T02900110  RH  033%=      5-min Rain = 0
KES1 241740Z 13005KT 29/11 A2997 RMK A01 T02910108  RH  032%=      5-min Rain = 0
KES1 241741Z 14003KT 29/11 A2997 RMK A01 T02910108  RH  032%=      5-min Rain = 0
KES1 241742Z 13003KT 29/11 A2997 RMK A01 T02920109  RH  032%=      5-min Rain = 0
KES1 241743Z 14004KT 29/11 A2997 RMK A01 T02920111  RH  032%=      5-min Rain = 0
KES1 241744Z 14006KT 30/12 A2997 RMK A01 T02960115  RH  033%=      5-min Rain = 0
KES1 241745Z 13007KT 30/11 A2997 RMK A01 T02990114  RH  032%=      5-min Rain = 0
KES1 241746Z 11007KT 30/11 A2997 RMK A01 T03000112  RH  031%=      5-min Rain = 0
KES1 241747Z 13007KT 30/11 A2997 RMK A01 T02990112  RH  031%=      5-min Rain = 0
KES1 241748Z 12008KT 30/11 A2996 RMK A01 T02990111  RH  031%=      5-min Rain = 0
KES1 241749Z 13006KT 30/11 A2996 RMK A01 T02990108  RH  031%=      5-min Rain = 0
KES1 241750Z 12006KT 30/11 A2996 RMK A01 T02980111  RH  032%=      5-min Rain = 0
KES1 241751Z 09006KT 30/11 A2996 RMK A01 T02980109  RH  031%=      5-min Rain = 0
KES1 241752Z 12007KT 30/11 A2996 RMK A01 T02990114  RH  032%=      5-min Rain = 0
KES1 241753Z 08006KT 30/11 A2996 RMK A01 T03020114  RH  031%=      5-min Rain = 0
KES1 241754Z 05005KT 30/11 A2996 RMK A01 T03030113  RH  031%=      5-min Rain = 0
KES1 241755Z 07005KT 30/11 A2996 RMK A01 T03040112  RH  031%=      5-min Rain = 0
KES1 241756Z 07007KT 31/12 A2996 RMK A01 T03050115  RH  031%=      5-min Rain = 0
KES1 241757Z 08007KT 31/11 A2996 RMK A01 T03050113  RH  031%=      5-min Rain = 0
KES1 241758Z 10005KT 30/11 A2996 RMK A01 T03030111  RH  031%=      5-min Rain = 0
KES1 241759Z 12004KT 30/11 A2996 RMK A01 T03000112  RH  031%=      5-min Rain = 0
KES1 241800Z 10004KT 30/11 A2996 RMK A01 T03000111  RH  031%=      5-min Rain = 0
KES1 241801Z 11010KT 30/12 A2996 RMK A01 T03010116  RH  032%=      5-min Rain = 0
KES1 241802Z 11009KT 30/11 A2996 RMK A01 T03040114  RH  031%=      5-min Rain = 0
KES1 241803Z 11008KT 31/11 A2996 RMK A01 T03050113  RH  031%=      5-min Rain = 0
KES1 241804Z 11005KT 30/11 A2996 RMK A01 T03030110  RH  030%=      5-min Rain = 0
KES1 241805Z 12004KT 30/12 A2996 RMK A01 T03010115  RH  032%=      5-min Rain = 0
KES1 241806Z 12004KT 30/11 A2996 RMK A01 T03040114  RH  031%=      5-min Rain = 0
KES1 241807Z 09007KT 31/12 A2996 RMK A01 T03070115  RH  031%=      5-min Rain = 0
KES1 241808Z 09009KT 31/11 A2996 RMK A01 T03070111  RH  030%=      5-min Rain = 0
KES1 241809Z 10005KT 30/11 A2996 RMK A01 T03030107  RH  030%=      5-min Rain = 0
KES1 241810Z 07003KT 30/11 A2996 RMK A01 T03000109  RH  031%=      5-min Rain = 0
KES1 241811Z 07004KT 30/11 A2996 RMK A01 T02990110  RH  031%=      5-min Rain = 0
KES1 241812Z 08004KT 30/11 A2995 RMK A01 T03000109  RH  031%=      5-min Rain = 0
KES1 241813Z 11005KT 30/11 A2996 RMK A01 T03000113  RH  031%=      5-min Rain = 0
KES1 241814Z 09006KT 30/11 A2996 RMK A01 T03020113  RH  031%=      5-min Rain = 0
KES1 241815Z 09003KT 30/11 A2995 RMK A01 T03030110  RH  030%=      5-min Rain = 0
KES1 241816Z 07003G8KT 30/11 A2995 RMK A01 T03010112  RH  031%=      5-min Rain = 0
KES1 241817Z 09008KT 30/11 A2995 RMK A01 T03040112  RH  031%=      5-min Rain = 0
KES1 241818Z 05005KT 30/11 A2995 RMK A01 T03030111  RH  031%=      5-min Rain = 0
KES1 241819Z 06005G12KT 30/11 A2995 RMK A01 T03010112  RH  031%=      5-min Rain = 0
KES1 241820Z 08009KT 30/12 A2995 RMK A01 T03030116  RH  032%=      5-min Rain = 0
KES1 241821Z 07007KT 31/12 A2995 RMK A01 T03090122  RH  032%=      5-min Rain = 0
KES1 241822Z 07009KT 32/12 A2995 RMK A01 T03150120  RH  030%=      5-min Rain = 0
KES1 241823Z 07006KT 32/12 A2995 RMK A01 T03160118  RH  030%=      5-min Rain = 0
KES1 241824Z 08003KT 31/12 A2995 RMK A01 T03140115  RH  029%=      5-min Rain = 0
KES1 241825Z 08006KT 31/12 A2995 RMK A01 T03130115  RH  030%=      5-min Rain = 0
KES1 241826Z 12009KT 31/12 A2995 RMK A01 T03120117  RH  030%=      5-min Rain = 0
KES1 241827Z 12007KT 31/12 A2995 RMK A01 T03100117  RH  031%=      5-min Rain = 0
KES1 241828Z 11008KT 31/12 A2995 RMK A01 T03090118  RH  031%=      5-min Rain = 0
KES1 241829Z 08008KT 31/12 A2995 RMK A01 T03100117  RH  031%=      5-min Rain = 0
KES1 241830Z 07006KT 31/12 A2995 RMK A01 T03090117  RH  031%=      5-min Rain = 0
KES1 241831Z 04004KT 31/12 A2995 RMK A01 T03100117  RH  031%=      5-min Rain = 0
KES1 241832Z 07003KT 31/11 A2995 RMK A01 T03130114  RH  030%=      5-min Rain = 0
KES1 241833Z 09006KT 31/11 A2995 RMK A01 T03130113  RH  029%=      5-min Rain = 0
KES1 241834Z 08005KT 31/11 A2995 RMK A01 T03090109  RH  029%=      5-min Rain = 0
KES1 241835Z 07004KT 31/11 A2995 RMK A01 T03060111  RH  030%=      5-min Rain = 0
KES1 241836Z 08006KT 30/12 A2995 RMK A01 T03040115  RH  031%=      5-min Rain = 0
KES1 241837Z 11005KT 31/12 A2995 RMK A01 T03090115  RH  031%=      5-min Rain = 0
KES1 241838Z 09007KT 31/12 A2995 RMK A01 T03110117  RH  031%=      5-min Rain = 0
KES1 241839Z 11010KT 31/12 A2995 RMK A01 T03110115  RH  030%=      5-min Rain = 0
KES1 241840Z 12008KT 31/11 A2995 RMK A01 T03100114  RH  030%=      5-min Rain = 0
KES1 241841Z 13007KT 31/11 A2995 RMK A01 T03090114  RH  030%=      5-min Rain = 0
KES1 241842Z 13007KT 31/12 A2994 RMK A01 T03090116  RH  030%=      5-min Rain = 0
KES1 241843Z 07006KT 31/12 A2994 RMK A01 T03090116  RH  030%=      5-min Rain = 0
KES1 241844Z 06007KT 31/12 A2994 RMK A01 T03110115  RH  030%=      5-min Rain = 0
KES1 241845Z 06006KT 31/11 A2994 RMK A01 T03130113  RH  029%=      5-min Rain = 0
KES1 241846Z 05005KT 31/11 A2994 RMK A01 T03130114  RH  029%=      5-min Rain = 0
KES1 241847Z 02005KT 31/11 A2994 RMK A01 T03120112  RH  029%=      5-min Rain = 0
KES1 241848Z 08004KT 31/11 A2994 RMK A01 T03090113  RH  030%=      5-min Rain = 0
KES1 241849Z 09007KT 31/11 A2994 RMK A01 T03080113  RH  030%=      5-min Rain = 0
KES1 241850Z 11007KT 31/11 A2995 RMK A01 T03070112  RH  030%=      5-min Rain = 0
KES1 241851Z 14004KT 30/11 A2994 RMK A01 T03040113  RH  031%=      5-min Rain = 0
KES1 241852Z 15004KT 31/11 A2994 RMK A01 T03050111  RH  030%=      5-min Rain = 0
KES1 241853Z 15004KT 30/11 A2994 RMK A01 T03040112  RH  031%=      5-min Rain = 0
KES1 241854Z 15003KT 30/11 A2994 RMK A01 T03030113  RH  031%=      5-min Rain = 0
KES1 241855Z 10007KT 30/12 A2994 RMK A01 T03040118  RH  032%=      5-min Rain = 0
KES1 241856Z 09005KT 31/12 A2994 RMK A01 T03100120  RH  031%=      5-min Rain = 0
KES1 241857Z 06009KT 32/12 A2994 RMK A01 T03150123  RH  031%=      5-min Rain = 0
KES1 241858Z 06008KT 32/12 A2994 RMK A01 T03170115  RH  029%=      5-min Rain = 0
KES1 241859Z 06008KT 32/12 A2994 RMK A01 T03150121  RH  030%=      5-min Rain = 0
KES1 241900Z 08005KT 32/12 A2994 RMK A01 T03170118  RH  030%=      5-min Rain = 0
KES1 241901Z 05005KT 32/12 A2994 RMK A01 T03170116  RH  029%=      5-min Rain = 0
KES1 241902Z 04005KT 32/11 A2994 RMK A01 T03150112  RH  029%=      5-min Rain = 0
KES1 241903Z 06005KT 31/12 A2994 RMK A01 T03140115  RH  029%=      5-min Rain = 0
KES1 241904Z 10005KT 32/12 A2994 RMK A01 T03160117  RH  030%=      5-min Rain = 0
KES1 241905Z 14008KT 32/12 A2994 RMK A01 T03160121  RH  030%=      5-min Rain = 0
KES1 241906Z 14007KT 32/12 A2994 RMK A01 T03170120  RH  030%=      5-min Rain = 0
KES1 241907Z 19005KT 32/12 A2994 RMK A01 T03160122  RH  030%=      5-min Rain = 0
KES1 241908Z 14008KT 32/12 A2994 RMK A01 T03150124  RH  031%=      5-min Rain = 0
KES1 241909Z 15008KT 32/12 A2994 RMK A01 T03170119  RH  030%=      5-min Rain = 0
KES1 241910Z 09005KT 32/12 A2994 RMK A01 T03170121  RH  030%=      5-min Rain = 0
KES1 241911Z 09008KT 32/12 A2994 RMK A01 T03190118  RH  029%=      5-min Rain = 0
KES1 241912Z 09007KT 32/12 A2993 RMK A01 T03180121  RH  030%=      5-min Rain = 0
KES1 241913Z 12008KT 32/12 A2993 RMK A01 T03190119  RH  029%=      5-min Rain = 0
KES1 241914Z 13008KT 32/12 A2993 RMK A01 T03170118  RH  030%=      5-min Rain = 0
KES1 241915Z 15004KT 32/12 A2993 RMK A01 T03150116  RH  030%=      5-min Rain = 0
KES1 241916Z 15003KT 31/12 A2993 RMK A01 T03140118  RH  030%=      5-min Rain = 0
KES1 241917Z 08003KT 32/12 A2993 RMK A01 T03150118  RH  030%=      5-min Rain = 0
KES1 241918Z 06006KT 32/12 A2993 RMK A01 T03170119  RH  030%=      5-min Rain = 0
KES1 241919Z 12007KT 32/12 A2993 RMK A01 T03190121  RH  030%=      5-min Rain = 0
KES1 241920Z 11010KT 32/12 A2993 RMK A01 T03210121  RH  030%=      5-min Rain = 0
KES1 241921Z 12009KT 32/12 A2993 RMK A01 T03170119  RH  030%=      5-min Rain = 0
KES1 241922Z 09009KT 32/12 A2993 RMK A01 T03150123  RH  031%=      5-min Rain = 0
KES1 241923Z 10008KT 32/12 A2993 RMK A01 T03160123  RH  031%=      5-min Rain = 0
KES1 241924Z 12006KT 32/12 A2993 RMK A01 T03180118  RH  030%=      5-min Rain = 0
KES1 241925Z 07005KT 31/12 A2993 RMK A01 T03140118  RH  030%=      5-min Rain = 0
KES1 241926Z 05006KT 31/12 A2993 RMK A01 T03130116  RH  030%=      5-min Rain = 0
KES1 241927Z 06009KT 31/12 A2993 RMK A01 T03130117  RH  030%=      5-min Rain = 0
KES1 241928Z 07008G13KT 32/12 A2993 RMK A01 T03150118  RH  030%=      5-min Rain = 0
KES1 241929Z 09012KT 32/12 A2993 RMK A01 T03170118  RH  030%=      5-min Rain = 0
KES1 241930Z 08006KT 32/12 A2993 RMK A01 T03170116  RH  029%=      5-min Rain = 0
KES1 241931Z 07010KT 32/12 A2993 RMK A01 T03160117  RH  030%=      5-min Rain = 0
KES1 241932Z 10012KT 32/12 A2993 RMK A01 T03160118  RH  030%=      5-min Rain = 0
KES1 241933Z 10013KT 32/12 A2993 RMK A01 T03170122  RH  030%=      5-min Rain = 0
KES1 241934Z 09012KT 32/12 A2993 RMK A01 T03170119  RH  030%=      5-min Rain = 0
KES1 241935Z 10011KT 32/12 A2993 RMK A01 T03150120  RH  030%=      5-min Rain = 0
KES1 241936Z 09009KT 31/12 A2993 RMK A01 T03140118  RH  030%=      5-min Rain = 0
KES1 241937Z 10008KT 31/12 A2993 RMK A01 T03110116  RH  030%=      5-min Rain = 0
KES1 241938Z 15003KT 31/11 A2993 RMK A01 T03080114  RH  030%=      5-min Rain = 0
KES1 241939Z 10003KT 31/11 A2993 RMK A01 T03060113  RH  030%=      5-min Rain = 0
KES1 241940Z 10004KT 31/12 A2993 RMK A01 T03060118  RH  031%=      5-min Rain = 0
KES1 241941Z 11011KT 31/12 A2993 RMK A01 T03110122  RH  031%=      5-min Rain = 0
KES1 241942Z 09010KT 32/12 A2993 RMK A01 T03170122  RH  030%=      5-min Rain = 0
KES1 241943Z 09010KT 32/12 A2993 RMK A01 T03190121  RH  030%=      5-min Rain = 0
KES1 241944Z 14007KT 32/12 A2993 RMK A01 T03190120  RH  030%=      5-min Rain = 0
KES1 241945Z 13008KT 32/12 A2993 RMK A01 T03200122  RH  030%=      5-min Rain = 0
KES1 241946Z 13007KT 32/12 A2993 RMK A01 T03230121  RH  029%=      5-min Rain = 0
KES1 241947Z 15007KT 32/12 A2993 RMK A01 T03240118  RH  029%=      5-min Rain = 0
KES1 241948Z 15006KT 32/12 A2993 RMK A01 T03220117  RH  029%=      5-min Rain = 0
KES1 241949Z 13006KT 32/12 A2993 RMK A01 T03210119  RH  029%=      5-min Rain = 0
KES1 241950Z 10011G16KT 32/12 A2993 RMK A01 T03200117  RH  029%=      5-min Rain = 0
KES1 241951Z 09012KT 32/11 A2993 RMK A01 T03200111  RH  028%=      5-min Rain = 0
KES1 241952Z 10011KT 32/11 A2993 RMK A01 T03170110  RH  028%=      5-min Rain = 0
KES1 241953Z 09008KT 32/11 A2993 RMK A01 T03150111  RH  029%=      5-min Rain = 0
KES1 241954Z 09008KT 32/11 A2993 RMK A01 T03160113  RH  029%=      5-min Rain = 0
KES1 241955Z 12012KT 32/12 A2993 RMK A01 T03180115  RH  029%=      5-min Rain = 0
KES1 241956Z 13012KT 32/12 A2993 RMK A01 T03190115  RH  029%=      5-min Rain = 0
KES1 241957Z 09009KT 32/11 A2993 RMK A01 T03180114  RH  029%=      5-min Rain = 0
KES1 241958Z 10008KT 32/12 A2993 RMK A01 T03170115  RH  029%=      5-min Rain = 0
KES1 241959Z 10009KT 32/11 A2993 RMK A01 T03170112  RH  028%=      5-min Rain = 0
KES1 242000Z 10008KT 32/11 A2993 RMK A01 T03150114  RH  029%=      5-min Rain = 0
KES1 242001Z 13004KT 32/11 A2993 RMK A01 T03160113  RH  029%=      5-min Rain = 0
KES1 242002Z 11009KT 32/11 A2993 RMK A01 T03170113  RH  029%=      5-min Rain = 0
KES1 242003Z 12010KT 32/11 A2993 RMK A01 T03170114  RH  029%=      5-min Rain = 0
KES1 242004Z 12007KT 32/11 A2993 RMK A01 T03170113  RH  029%=      5-min Rain = 0
KES1 242005Z 13005KT 32/11 A2993 RMK A01 T03170111  RH  028%=      5-min Rain = 0
KES1 242006Z 14004KT 32/11 A2992 RMK A01 T03150114  RH  029%=      5-min Rain = 0
KES1 242007Z 12007KT 32/11 A2993 RMK A01 T03180114  RH  029%=      5-min Rain = 0
KES1 242008Z 12007KT 32/11 A2993 RMK A01 T03190114  RH  029%=      5-min Rain = 0
KES1 242009Z 13008KT 32/12 A2992 RMK A01 T03170115  RH  029%=      5-min Rain = 0
KES1 242010Z 13006KT 32/11 A2992 RMK A01 T03170114  RH  029%=      5-min Rain = 0
KES1 242011Z 14008KT 32/12 A2992 RMK A01 T03190119  RH  029%=      5-min Rain = 0
KES1 242012Z 15006KT 32/12 A2992 RMK A01 T03220116  RH  028%=      5-min Rain = 0
KES1 242013Z 10006KT 32/12 A2992 RMK A01 T03210116  RH  029%=      5-min Rain = 0
KES1 242014Z 06006KT 32/12 A2992 RMK A01 T03190117  RH  029%=      5-min Rain = 0
KES1 242015Z 06003KT 32/12 A2992 RMK A01 T03200117  RH  029%=      5-min Rain = 0
KES1 242016Z 12005KT 32/12 A2992 RMK A01 T03220119  RH  029%=      5-min Rain = 0
KES1 242017Z 14005KT 32/12 A2992 RMK A01 T03230119  RH  029%=      5-min Rain = 0
KES1 242018Z 15008KT 33/12 A2992 RMK A01 T03260119  RH  028%=      5-min Rain = 0
KES1 242019Z 14011KT 33/12 A2992 RMK A01 T03280116  RH  027%=      5-min Rain = 0
KES1 242020Z 12011KT 33/11 A2992 RMK A01 T03270114  RH  027%=      5-min Rain = 0
KES1 242021Z 11011KT 32/11 A2992 RMK A01 T03230113  RH  028%=      5-min Rain = 0
KES1 242022Z 11011KT 32/11 A2992 RMK A01 T03190112  RH  028%=      5-min Rain = 0
KES1 242023Z 10008KT 32/11 A2992 RMK A01 T03170113  RH  029%=      5-min Rain = 0
KES1 242024Z 11009KT 32/11 A2992 RMK A01 T03170113  RH  029%=      5-min Rain = 0
KES1 242025Z 09008KT 32/12 A2992 RMK A01 T03170117  RH  029%=      5-min Rain = 0
KES1 242026Z 12005KT 32/12 A2992 RMK A01 T03200117  RH  029%=      5-min Rain = 0
KES1 242027Z 08005KT 32/12 A2992 RMK A01 T03210119  RH  029%=      5-min Rain = 0
KES1 242028Z 07007KT 32/11 A2992 RMK A01 T03230114  RH  028%=      5-min Rain = 0
KES1 242029Z 06005KT 32/12 A2992 RMK A01 T03230116  RH  028%=      5-min Rain = 0
KES1 242030Z 13006KT 33/12 A2992 RMK A01 T03260117  RH  028%=      5-min Rain = 0
KES1 242031Z 13005KT 32/11 A2992 RMK A01 T03240113  RH  028%=      5-min Rain = 0
KES1 242032Z 12004KT 32/12 A2992 RMK A01 T03220115  RH  028%=      5-min Rain = 0
KES1 242033Z 16009KT 32/12 A2992 RMK A01 T03240116  RH  028%=      5-min Rain = 0
KES1 242034Z 14011KT 32/11 A2991 RMK A01 T03230112  RH  027%=      5-min Rain = 0
KES1 242035Z 11009KT 32/12 A2992 RMK A01 T03230116  RH  028%=      5-min Rain = 0
KES1 242036Z 13011KT 32/12 A2992 RMK A01 T03240116  RH  028%=      5-min Rain = 0
KES1 242037Z 13011KT 33/12 A2992 RMK A01 T03250116  RH  028%=      5-min Rain = 0
KES1 242038Z 12009KT 32/11 A2992 RMK A01 T03240114  RH  028%=      5-min Rain = 0
KES1 242039Z 12008KT 32/11 A2992 RMK A01 T03210114  RH  028%=      5-min Rain = 0
KES1 242040Z 12008G13KT 32/11 A2991 RMK A01 T03200112  RH  028%=      5-min Rain = 0
KES1 242041Z 14010KT 32/11 A2991 RMK A01 T03190114  RH  029%=      5-min Rain = 0
KES1 242042Z 11008KT 32/11 A2991 RMK A01 T03200112  RH  028%=      5-min Rain = 0
KES1 242043Z 11007KT 32/11 A2991 RMK A01 T03190111  RH  028%=      5-min Rain = 0
KES1 242044Z 15006KT 32/12 A2991 RMK A01 T03190115  RH  029%=      5-min Rain = 0
KES1 242045Z 16004KT 32/12 A2991 RMK A01 T03230117  RH  028%=      5-min Rain = 0
KES1 242046Z 11003KT 33/11 A2991 RMK A01 T03250114  RH  027%=      5-min Rain = 0
KES1 242047Z 12005G10KT 33/12 A2991 RMK A01 T03250116  RH  028%=      5-min Rain = 0
KES1 242048Z 13010KT 32/12 A2991 RMK A01 T03240116  RH  028%=      5-min Rain = 0
KES1 242049Z 11013G18KT 33/12 A2991 RMK A01 T03250117  RH  028%=      5-min Rain = 0
KES1 242050Z 11012KT 32/12 A2991 RMK A01 T03230115  RH  028%=      5-min Rain = 0
KES1 242051Z 10013KT 32/12 A2991 RMK A01 T03220116  RH  028%=      5-min Rain = 0
KES1 242052Z 10011KT 32/12 A2991 RMK A01 T03220115  RH  028%=      5-min Rain = 0
KES1 242053Z 10008KT 32/11 A2991 RMK A01 T03220113  RH  028%=      5-min Rain = 0
KES1 242054Z 09008KT 32/12 A2991 RMK A01 T03210120  RH  029%=      5-min Rain = 0
KES1 242055Z 10009KT 33/12 A2991 RMK A01 T03260119  RH  028%=      5-min Rain = 0
KES1 242056Z 13010KT 33/12 A2991 RMK A01 T03270116  RH  028%=      5-min Rain = 0
KES1 242057Z 13008KT 32/11 A2991 RMK A01 T03240114  RH  028%=      5-min Rain = 0
KES1 242058Z 09005KT 32/11 A2991 RMK A01 T03220112  RH  028%=      5-min Rain = 0
KES1 242059Z 13005KT 32/12 A2991 RMK A01 T03190116  RH  029%=      5-min Rain = 0
KES1 242100Z 13006KT 32/12 A2991 RMK A01 T03200115  RH  029%=      5-min Rain = 0
KES1 242101Z 15012KT 32/12 A2991 RMK A01 T03230118  RH  029%=      5-min Rain = 0
KES1 242102Z 15011KT 32/12 A2991 RMK A01 T03240116  RH  028%=      5-min Rain = 0
KES1 242103Z 17008KT 32/12 A2991 RMK A01 T03240116  RH  028%=      5-min Rain = 0
KES1 242104Z 18005KT 32/12 A2991 RMK A01 T03240116  RH  028%=      5-min Rain = 0
KES1 242105Z 16005KT 32/11 A2991 RMK A01 T03240114  RH  028%=      5-min Rain = 0
KES1 242106Z 12006G11KT 32/12 A2991 RMK A01 T03240119  RH  029%=      5-min Rain = 0
KES1 242107Z 11008KT 33/12 A2991 RMK A01 T03260116  RH  028%=      5-min Rain = 0
KES1 242108Z 09004KT 32/11 A2991 RMK A01 T03210111  RH  028%=      5-min Rain = 0
KES1 242109Z 08007KT 32/12 A2991 RMK A01 T03180115  RH  029%=      5-min Rain = 0
KES1 242110Z 09011KT 32/12 A2991 RMK A01 T03230120  RH  029%=      5-min Rain = 0
KES1 242111Z 09013KT 33/12 A2991 RMK A01 T03250117  RH  028%=      5-min Rain = 0
KES1 242112Z 10006KT 32/11 A2991 RMK A01 T03220113  RH  028%=      5-min Rain = 0
KES1 242113Z 05004KT 32/11 A2991 RMK A01 T03200114  RH  028%=      5-min Rain = 0
KES1 242114Z 04002KT 32/11 A299 RMK A01 T03210113  RH  028%=      5-min Rain = 0
KES1 242115Z 08005KT 32/12 A299 RMK A01 T03210115  RH  028%=      5-min Rain = 0
KES1 242116Z 08007KT 33/12 A299 RMK A01 T03250119  RH  028%=      5-min Rain = 0
KES1 242117Z 10007KT 33/12 A299 RMK A01 T03270117  RH  028%=      5-min Rain = 0
KES1 242118Z 09009KT 33/12 A299 RMK A01 T03270116  RH  028%=      5-min Rain = 0
KES1 242119Z 09007KT 32/11 A299 RMK A01 T03230112  RH  027%=      5-min Rain = 0
KES1 242120Z 12010KT 32/12 A299 RMK A01 T03220116  RH  028%=      5-min Rain = 0
KES1 242121Z 12012KT 32/12 A299 RMK A01 T03230118  RH  029%=      5-min Rain = 0
KES1 242122Z 11013KT 33/12 A299 RMK A01 T03250116  RH  028%=      5-min Rain = 0
KES1 242123Z 12010KT 32/11 A299 RMK A01 T03220114  RH  028%=      5-min Rain = 0
KES1 242124Z 12007KT 32/12 A299 RMK A01 T03220117  RH  029%=      5-min Rain = 0
KES1 242125Z 11007KT 33/12 A299 RMK A01 T03250117  RH  028%=      5-min Rain = 0
KES1 242126Z 08011KT 33/12 A299 RMK A01 T03250116  RH  028%=      5-min Rain = 0
KES1 242127Z 10010KT 32/12 A299 RMK A01 T03240119  RH  029%=      5-min Rain = 0
KES1 242128Z 09010KT 33/12 A299 RMK A01 T03260117  RH  028%=      5-min Rain = 0
KES1 242129Z 09007KT 33/12 A299 RMK A01 T03260116  RH  028%=      5-min Rain = 0
KES1 242130Z 12009KT 33/12 A299 RMK A01 T03250117  RH  028%=      5-min Rain = 0
KES1 242131Z 11009KT 33/12 A299 RMK A01 T03260115  RH  028%=      5-min Rain = 0
KES1 242132Z 12008KT 32/11 A299 RMK A01 T03240113  RH  027%=      5-min Rain = 0
KES1 242133Z 13007KT 32/11 A299 RMK A01 T03210113  RH  028%=      5-min Rain = 0
KES1 242134Z 14006KT 32/11 A299 RMK A01 T03210113  RH  028%=      5-min Rain = 0
KES1 242135Z 15008KT 32/11 A2989 RMK A01 T03210114  RH  028%=      5-min Rain = 0
KES1 242136Z 15010KT 32/12 A2989 RMK A01 T03240116  RH  028%=      5-min Rain = 0
KES1 242137Z 13008KT 33/12 A2989 RMK A01 T03260116  RH  028%=      5-min Rain = 0
KES1 242138Z 11008KT 33/12 A2989 RMK A01 T03280119  RH  028%=      5-min Rain = 0
KES1 242139Z 10008KT 33/12 A2989 RMK A01 T03300118  RH  028%=      5-min Rain = 0
KES1 242140Z 13008KT 33/12 A2989 RMK A01 T03300120  RH  028%=      5-min Rain = 0
KES1 242141Z 13008KT 33/12 A2989 RMK A01 T03320121  RH  028%=      5-min Rain = 0
KES1 242142Z 15008KT 33/12 A2989 RMK A01 T03340119  RH  027%=      5-min Rain = 0
KES1 242143Z 15008KT 34/12 A2989 RMK A01 T03350122  RH  028%=      5-min Rain = 0
KES1 242144Z 16007KT 34/12 A2989 RMK A01 T03350117  RH  027%=      5-min Rain = 0
KES1 242145Z 16007KT 33/12 A2989 RMK A01 T03340118  RH  027%=      5-min Rain = 0
KES1 242146Z 12008KT 33/12 A2989 RMK A01 T03320117  RH  027%=      5-min Rain = 0
KES1 242147Z 13006KT 33/12 A2989 RMK A01 T03290115  RH  027%=      5-min Rain = 0
KES1 242148Z 12004KT 33/11 A2989 RMK A01 T03270113  RH  027%=      5-min Rain = 0
KES1 242149Z 13003KT 33/12 A2989 RMK A01 T03250116  RH  028%=      5-min Rain = 0
KES1 242150Z 15009G14KT 33/12 A2989 RMK A01 T03250118  RH  028%=      5-min Rain = 0
KES1 242151Z 15010KT 33/12 A2989 RMK A01 T03270121  RH  028%=      5-min Rain = 0
KES1 242152Z 16009KT 33/12 A2989 RMK A01 T03290122  RH  028%=      5-min Rain = 0
KES1 242153Z 14009KT 33/12 A2989 RMK A01 T03320122  RH  028%=      5-min Rain = 0
KES1 242154Z 15013KT 33/12 A2989 RMK A01 T03320122  RH  028%=      5-min Rain = 0
KES1 242155Z 17010KT 33/12 A2989 RMK A01 T03310118  RH  027%=      5-min Rain = 0
KES1 242156Z 15007KT 33/12 A2989 RMK A01 T03290121  RH  028%=      5-min Rain = 0
KES1 242157Z 18005KT 33/12 A2989 RMK A01 T03300119  RH  028%=      5-min Rain = 0
KES1 242158Z 15004KT 33/12 A2989 RMK A01 T03300118  RH  028%=      5-min Rain = 0
KES1 242159Z 15006KT 33/12 A2989 RMK A01 T03300121  RH  028%=      5-min Rain = 0
KES1 242200Z 14008KT 33/12 A2988 RMK A01 T03310119  RH  028%=      5-min Rain = 0
KES1 242201Z 12009KT 33/12 A2988 RMK A01 T03280118  RH  028%=      5-min Rain = 0
KES1 242202Z 14008KT 33/12 A2988 RMK A01 T03270121  RH  029%=      5-min Rain = 0
KES1 242203Z 14008KT 33/12 A2988 RMK A01 T03280118  RH  028%=      5-min Rain = 0
KES1 242204Z 16009KT 33/12 A2988 RMK A01 T03280120  RH  028%=      5-min Rain = 0
KES1 242205Z 15010KT 33/12 A2988 RMK A01 T03290120  RH  028%=      5-min Rain = 0
KES1 242206Z 13006KT 33/12 A2988 RMK A01 T03270117  RH  028%=      5-min Rain = 0
KES1 242207Z 14004G10KT 32/12 A2988 RMK A01 T03230118  RH  029%=      5-min Rain = 0
KES1 242208Z 14012KT 33/12 A2988 RMK A01 T03250123  RH  029%=      5-min Rain = 0
KES1 242209Z 16010KT 33/12 A2988 RMK A01 T03270121  RH  029%=      5-min Rain = 0
KES1 242210Z 17008KT 33/12 A2988 RMK A01 T03270120  RH  028%=      5-min Rain = 0
KES1 242211Z 15007KT 33/12 A2988 RMK A01 T03270121  RH  029%=      5-min Rain = 0
KES1 242212Z 16005KT 33/12 A2988 RMK A01 T03270119  RH  028%=      5-min Rain = 0
KES1 242213Z 15005KT 33/12 A2988 RMK A01 T03260119  RH  028%=      5-min Rain = 0
KES1 242214Z 13006KT 33/12 A2988 RMK A01 T03260121  RH  029%=      5-min Rain = 0
KES1 242215Z 11004KT 33/12 A2988 RMK A01 T03250120  RH  029%=      5-min Rain = 0
KES1 242216Z 12008KT 32/12 A2988 RMK A01 T03240123  RH  029%=      5-min Rain = 0
KES1 242217Z 14010KT 33/12 A2988 RMK A01 T03250124  RH  029%=      5-min Rain = 0
KES1 242218Z 15009KT 33/12 A2988 RMK A01 T03270122  RH  029%=      5-min Rain = 0
KES1 242219Z 12005KT 33/12 A2988 RMK A01 T03270123  RH  029%=      5-min Rain = 0
KES1 242220Z 12009KT 33/13 A2988 RMK A01 T03280127  RH  030%=      5-min Rain = 0
KES1 242221Z 11010KT 33/13 A2988 RMK A01 T03310127  RH  029%=      5-min Rain = 0
KES1 242222Z 11008KT 33/13 A2988 RMK A01 T03320129  RH  029%=      5-min Rain = 0
KES1 242223Z 10009KT 33/13 A2988 RMK A01 T03330127  RH  029%=      5-min Rain = 0
KES1 242224Z 11011KT 33/13 A2988 RMK A01 T03320126  RH  029%=      5-min Rain = 0
KES1 242225Z 10012KT 33/12 A2988 RMK A01 T03280121  RH  028%=      5-min Rain = 0
KES1 242226Z 10012KT 32/12 A2988 RMK A01 T03240121  RH  029%=      5-min Rain = 0
KES1 242227Z 12012G17KT 32/12 A2987 RMK A01 T03230122  RH  029%=      5-min Rain = 0
KES1 242228Z 14010KT 32/12 A2988 RMK A01 T03230124  RH  030%=      5-min Rain = 0
KES1 242229Z 11010KT 32/12 A2988 RMK A01 T03240123  RH  029%=      5-min Rain = 0
KES1 242230Z 11008KT 32/12 A2988 RMK A01 T03230120  RH  029%=      5-min Rain = 0
KES1 242231Z 12008KT 32/12 A2988 RMK A01 T03210122  RH  030%=      5-min Rain = 0
KES1 242232Z 13010KT 32/12 A2988 RMK A01 T03220123  RH  030%=      5-min Rain = 0
KES1 242233Z 14011KT 32/12 A2988 RMK A01 T03230123  RH  029%=      5-min Rain = 0
KES1 242234Z 12009G14KT 32/12 A2988 RMK A01 T03240122  RH  029%=      5-min Rain = 0
KES1 242235Z 11007KT 32/12 A2988 RMK A01 T03220120  RH  029%=      5-min Rain = 0
KES1 242236Z 11008KT 32/12 A2987 RMK A01 T03220123  RH  030%=      5-min Rain = 0
KES1 242237Z 12006KT 32/12 A2987 RMK A01 T03230121  RH  029%=      5-min Rain = 0
KES1 242238Z 14008KT 32/12 A2987 RMK A01 T03220123  RH  030%=      5-min Rain = 0
KES1 242239Z 13007KT 32/13 A2987 RMK A01 T03240126  RH  030%=      5-min Rain = 0
KES1 242240Z 16006KT 33/13 A2987 RMK A01 T03270125  RH  029%=      5-min Rain = 0
KES1 242241Z 16008KT 33/12 A2987 RMK A01 T03280124  RH  029%=      5-min Rain = 0
KES1 242242Z 14011KT 33/12 A2987 RMK A01 T03300124  RH  029%=      5-min Rain = 0
KES1 242243Z 15009KT 33/12 A2987 RMK A01 T03300122  RH  028%=      5-min Rain = 0
KES1 242244Z 16008KT 33/12 A2987 RMK A01 T03280121  RH  028%=      5-min Rain = 0
KES1 242245Z 16007KT 33/12 A2987 RMK A01 T03260121  RH  029%=      5-min Rain = 0
KES1 242246Z 17008KT 33/12 A2987 RMK A01 T03260120  RH  028%=      5-min Rain = 0
KES1 242247Z 17007KT 33/12 A2987 RMK A01 T03260121  RH  029%=      5-min Rain = 0
KES1 242248Z 15005KT 33/12 A2987 RMK A01 T03270122  RH  029%=      5-min Rain = 0
KES1 242249Z 12005KT 33/12 A2987 RMK A01 T03270124  RH  029%=      5-min Rain = 0
KES1 242250Z 11009G14KT 33/12 A2987 RMK A01 T03270124  RH  029%=      5-min Rain = 0
KES1 242251Z 11010KT 33/12 A2987 RMK A01 T03260124  RH  029%=      5-min Rain = 0
KES1 242252Z 09009KT 33/12 A2987 RMK A01 T03260124  RH  029%=      5-min Rain = 0
KES1 242253Z 11007KT 32/12 A2987 RMK A01 T03230120  RH  029%=      5-min Rain = 0
KES1 242254Z 12007KT 32/12 A2987 RMK A01 T03200121  RH  030%=      5-min Rain = 0
KES1 242255Z 13010KT 32/12 A2987 RMK A01 T03200124  RH  030%=      5-min Rain = 0
KES1 242256Z 13010KT 32/13 A2987 RMK A01 T03220127  RH  031%=      5-min Rain = 0
KES1 242257Z 13011KT 32/13 A2987 RMK A01 T03240125  RH  030%=      5-min Rain = 0
KES1 242258Z 13010KT 33/12 A2987 RMK A01 T03250124  RH  029%=      5-min Rain = 0
KES1 242259Z 12009KT 32/12 A2987 RMK A01 T03220123  RH  030%=      5-min Rain = 0
KES1 242300Z 12010KT 32/12 A2987 RMK A01 T03210124  RH  030%=      5-min Rain = 0
KES1 242301Z 12008KT 32/12 A2987 RMK A01 T03210124  RH  030%=      5-min Rain = 0
KES1 242302Z 11007KT 32/12 A2987 RMK A01 T03210124  RH  030%=      5-min Rain = 0
KES1 242303Z 10011KT 32/12 A2987 RMK A01 T03200124  RH  030%=      5-min Rain = 0
KES1 242304Z 09011KT 32/12 A2986 RMK A01 T03200121  RH  030%=      5-min Rain = 0
KES1 242305Z 09010KT 32/12 A2986 RMK A01 T03180124  RH  030%=      5-min Rain = 0
KES1 242306Z 09013KT 32/13 A2986 RMK A01 T03200125  RH  030%=      5-min Rain = 0
KES1 242307Z 11014KT 32/13 A2986 RMK A01 T03210125  RH  030%=      5-min Rain = 0
KES1 242308Z 12011KT 32/13 A2986 RMK A01 T03210125  RH  030%=      5-min Rain = 0
KES1 242309Z 12009KT 32/13 A2987 RMK A01 T03210125  RH  030%=      5-min Rain = 0
KES1 242310Z 11009KT 32/12 A2986 RMK A01 T03210124  RH  030%=      5-min Rain = 0
KES1 242311Z 13009KT 32/13 A2986 RMK A01 T03200125  RH  030%=      5-min Rain = 0
KES1 242312Z 13010G15KT 32/13 A2987 RMK A01 T03230129  RH  031%=      5-min Rain = 0
KES1 242313Z 12014KT 33/13 A2987 RMK A01 T03250126  RH  030%=      5-min Rain = 0
KES1 242314Z 13013KT 32/12 A2987 RMK A01 T03220123  RH  030%=      5-min Rain = 0
KES1 242315Z 13012KT 32/12 A2987 RMK A01 T03210124  RH  030%=      5-min Rain = 0
KES1 242316Z 13011KT 32/12 A2987 RMK A01 T03200123  RH  030%=      5-min Rain = 0
KES1 242317Z 12008KT 32/12 A2987 RMK A01 T03200124  RH  030%=      5-min Rain = 0
KES1 242318Z 12009KT 32/13 A2987 RMK A01 T03190125  RH  030%=      5-min Rain = 0
KES1 242319Z 13007KT 32/13 A2987 RMK A01 T03190125  RH  031%=      5-min Rain = 0
KES1 242320Z 12008KT 32/13 A2987 RMK A01 T03200129  RH  031%=      5-min Rain = 0
KES1 242321Z 10009G14KT 32/13 A2987 RMK A01 T03220126  RH  030%=      5-min Rain = 0
KES1 242322Z 08012KT 32/13 A2986 RMK A01 T03200125  RH  030%=      5-min Rain = 0
KES1 242323Z 10012KT 32/13 A2986 RMK A01 T03180126  RH  031%=      5-min Rain = 0
KES1 242324Z 12011KT 32/13 A2986 RMK A01 T03180127  RH  031%=      5-min Rain = 0
KES1 242325Z 10007KT 32/13 A2986 RMK A01 T03180126  RH  031%=      5-min Rain = 0
KES1 242326Z 11009KT 32/13 A2986 RMK A01 T03190130  RH  032%=      5-min Rain = 0
KES1 242327Z 12013KT 32/13 A2987 RMK A01 T03210128  RH  031%=      5-min Rain = 0
KES1 242328Z 12011KT 32/13 A2987 RMK A01 T03210127  RH  031%=      5-min Rain = 0
KES1 242329Z 12010KT 32/13 A2987 RMK A01 T03210127  RH  031%=      5-min Rain = 0
KES1 242330Z 13009KT 32/13 A2987 RMK A01 T03200128  RH  031%=      5-min Rain = 0
KES1 242331Z 14009KT 32/13 A2987 RMK A01 T03200127  RH  031%=      5-min Rain = 0
KES1 242332Z 15008KT 32/13 A2987 RMK A01 T03210127  RH  031%=      5-min Rain = 0
KES1 242333Z 13008KT 32/13 A2987 RMK A01 T03220130  RH  031%=      5-min Rain = 0
KES1 242334Z 13008KT 32/13 A2987 RMK A01 T03230130  RH  031%=      5-min Rain = 0
KES1 242335Z 12010G15KT 32/13 A2987 RMK A01 T03230128  RH  031%=      5-min Rain = 0
KES1 242336Z 13008KT 32/13 A2987 RMK A01 T03210126  RH  031%=      5-min Rain = 0
KES1 242337Z 13009KT 32/13 A2987 RMK A01 T03200127  RH  031%=      5-min Rain = 0
KES1 242338Z 12011KT 32/13 A2986 RMK A01 T03200128  RH  031%=      5-min Rain = 0
KES1 242339Z 11011KT 32/13 A2986 RMK A01 T03190125  RH  031%=      5-min Rain = 0
KES1 242340Z 10010KT 32/12 A2986 RMK A01 T03170124  RH  031%=      5-min Rain = 0
KES1 242341Z 11011KT 32/13 A2986 RMK A01 T03160125  RH  031%=      5-min Rain = 0
KES1 242342Z 11010KT 32/13 A2986 RMK A01 T03160125  RH  031%=      5-min Rain = 0
KES1 242343Z 10010KT 32/13 A2986 RMK A01 T03150127  RH  032%=      5-min Rain = 0
KES1 242344Z 12010KT 32/13 A2986 RMK A01 T03160128  RH  032%=      5-min Rain = 0
KES1 242345Z 12008KT 32/13 A2986 RMK A01 T03170128  RH  032%=      5-min Rain = 0
KES1 242346Z 12011KT 32/13 A2986 RMK A01 T03170130  RH  032%=      5-min Rain = 0
KES1 242347Z 12011KT 32/13 A2986 RMK A01 T03180129  RH  032%=      5-min Rain = 0
KES1 242348Z 12010KT 32/13 A2986 RMK A01 T03170128  RH  032%=      5-min Rain = 0
KES1 242349Z 12009KT 32/13 A2986 RMK A01 T03160127  RH  032%=      5-min Rain = 0
KES1 242350Z 14009KT 32/13 A2986 RMK A01 T03150128  RH  032%=      5-min Rain = 0
KES1 242351Z 13009KT 32/13 A2986 RMK A01 T03150128  RH  032%=      5-min Rain = 0
KES1 242352Z 13008KT 32/13 A2986 RMK A01 T03160129  RH  032%=      5-min Rain = 0
KES1 242353Z 12009KT 32/13 A2986 RMK A01 T03160130  RH  032%=      5-min Rain = 0
KES1 242354Z 15010KT 32/13 A2986 RMK A01 T03170131  RH  032%=      5-min Rain = 0
KES1 242355Z 15011KT 32/13 A2986 RMK A01 T03170130  RH  032%=      5-min Rain = 0
KES1 242356Z 15011KT 32/13 A2986 RMK A01 T03170131  RH  032%=      5-min Rain = 0
KES1 242357Z 12011KT 32/13 A2986 RMK A01 T03170133  RH  033%=      5-min Rain = 0
KES1 242358Z 11012KT 32/13 A2986 RMK A01 T03180130  RH  032%=      5-min Rain = 0
KES1 242359Z 12011KT 32/13 A2986 RMK A01 T03160130  RH  032%=      5-min Rain = 0
KES1 250000Z 12010KT 32/13 A2986 RMK A01 T03150129  RH  032%=      5-min Rain = 0
KES1 250001Z 12009KT 31/13 A2986 RMK A01 T03140130  RH  032%=      5-min Rain = 0
KES1 250002Z 13010KT 31/13 A2986 RMK A01 T03140131  RH  033%=      5-min Rain = 0
KES1 250003Z 13008G15KT 31/13 A2986 RMK A01 T03140134  RH  033%=      5-min Rain = 0
KES1 250004Z 13012KT 32/13 A2986 RMK A01 T03150132  RH  033%=      5-min Rain = 0
KES1 250005Z 14013KT 31/13 A2986 RMK A01 T03140130  RH  033%=      5-min Rain = 0
KES1 250006Z 15012KT 31/13 A2986 RMK A01 T03130132  RH  033%=      5-min Rain = 0
KES1 250007Z 15010KT 31/13 A2986 RMK A01 T03130132  RH  033%=      5-min Rain = 0
KES1 250008Z 13011KT 31/13 A2986 RMK A01 T03130133  RH  033%=      5-min Rain = 0
KES1 250009Z 13012KT 31/13 A2986 RMK A01 T03130131  RH  033%=      5-min Rain = 0
KES1 250010Z 14011KT 31/13 A2986 RMK A01 T03130132  RH  033%=      5-min Rain = 0
KES1 250011Z 15013KT 31/13 A2986 RMK A01 T03130133  RH  033%=      5-min Rain = 0
KES1 250012Z 15009KT 31/13 A2986 RMK A01 T03130133  RH  033%=      5-min Rain = 0
KES1 250013Z 15012KT 31/13 A2986 RMK A01 T03130133  RH  034%=      5-min Rain = 0
KES1 250014Z 14012KT 31/13 A2986 RMK A01 T03120131  RH  033%=      5-min Rain = 0
KES1 250015Z 15012KT 31/13 A2986 RMK A01 T03120131  RH  033%=      5-min Rain = 0
KES1 250016Z 15013KT 31/13 A2986 RMK A01 T03130130  RH  033%=      5-min Rain = 0
KES1 250017Z 14011KT 31/13 A2986 RMK A01 T03120131  RH  033%=      5-min Rain = 0
KES1 250018Z 14010KT 31/13 A2986 RMK A01 T03120130  RH  033%=      5-min Rain = 0
KES1 250019Z 15010KT 31/13 A2986 RMK A01 T03120131  RH  033%=      5-min Rain = 0
KES1 250020Z 14009KT 31/13 A2987 RMK A01 T03120132  RH  033%=      5-min Rain = 0
KES1 250021Z 14013KT 31/13 A2987 RMK A01 T03120130  RH  033%=      5-min Rain = 0
KES1 250022Z 15013KT 31/13 A2987 RMK A01 T03120128  RH  033%=      5-min Rain = 0
KES1 250023Z 14012KT 31/13 A2987 RMK A01 T03110128  RH  033%=      5-min Rain = 0
KES1 250024Z 14011KT 31/13 A2987 RMK A01 T03110128  RH  033%=      5-min Rain = 0
KES1 250025Z 14011KT 31/13 A2987 RMK A01 T03110127  RH  032%=      5-min Rain = 0
KES1 250026Z 14013KT 31/13 A2987 RMK A01 T03110125  RH  032%=      5-min Rain = 0
KES1 250027Z 15012KT 31/13 A2987 RMK A01 T03100125  RH  032%=      5-min Rain = 0
KES1 250028Z 14012KT 31/13 A2987 RMK A01 T03100126  RH  032%=      5-min Rain = 0
KES1 250029Z 14008KT 31/13 A2987 RMK A01 T03100126  RH  033%=      5-min Rain = 0
KES1 250030Z 13008KT 31/13 A2987 RMK A01 T03100127  RH  033%=      5-min Rain = 0
KES1 250031Z 12011KT 31/13 A2987 RMK A01 T03100127  RH  033%=      5-min Rain = 0
KES1 250032Z 13011KT 31/13 A2987 RMK A01 T03090126  RH  033%=      5-min Rain = 0
KES1 250033Z 13013KT 31/13 A2987 RMK A01 T03090126  RH  033%=      5-min Rain = 0
KES1 250034Z 12011KT 31/12 A2987 RMK A01 T03080124  RH  033%=      5-min Rain = 0
KES1 250035Z 12012KT 31/13 A2987 RMK A01 T03070125  RH  033%=      5-min Rain = 0
KES1 250036Z 13009G15KT 31/13 A2987 RMK A01 T03070125  RH  033%=      5-min Rain = 0
KES1 250037Z 13010KT 31/13 A2987 RMK A01 T03070126  RH  033%=      5-min Rain = 0
KES1 250038Z 14008KT 31/13 A2987 RMK A01 T03070126  RH  033%=      5-min Rain = 0
KES1 250039Z 14009KT 31/13 A2987 RMK A01 T03070126  RH  033%=      5-min Rain = 0
KES1 250040Z 14010KT 31/13 A2987 RMK A01 T03070126  RH  033%=      5-min Rain = 0
KES1 250041Z 13009KT 31/13 A2987 RMK A01 T03070125  RH  033%=      5-min Rain = 0
KES1 250042Z 13013KT 31/13 A2987 RMK A01 T03070125  RH  033%=      5-min Rain = 0
KES1 250043Z 13011KT 31/12 A2987 RMK A01 T03060124  RH  033%=      5-min Rain = 0
KES1 250044Z 13011KT 31/12 A2987 RMK A01 T03060123  RH  033%=      5-min Rain = 0
KES1 250045Z 14010KT 31/12 A2987 RMK A01 T03050124  RH  033%=      5-min Rain = 0
KES1 250046Z 13010KT 31/12 A2987 RMK A01 T03050124  RH  033%=      5-min Rain = 0
KES1 250047Z 12011KT 31/13 A2987 RMK A01 T03050125  RH  033%=      5-min Rain = 0
KES1 250048Z 12009KT 30/13 A2987 RMK A01 T03040125  RH  033%=      5-min Rain = 0
KES1 250049Z 13009KT 30/13 A2987 RMK A01 T03040126  RH  034%=      5-min Rain = 0
KES1 250050Z 12011KT 30/13 A2987 RMK A01 T03030125  RH  033%=      5-min Rain = 0
KES1 250051Z 13012KT 30/12 A2987 RMK A01 T03030124  RH  033%=      5-min Rain = 0
KES1 250052Z 12008KT 30/12 A2987 RMK A01 T03030124  RH  033%=      5-min Rain = 0
KES1 250053Z 12010KT 30/12 A2987 RMK A01 T03030124  RH  033%=      5-min Rain = 0
KES1 250054Z 13011KT 30/12 A2987 RMK A01 T03020123  RH  033%=      5-min Rain = 0
KES1 250055Z 12010KT 30/12 A2987 RMK A01 T03020124  RH  034%=      5-min Rain = 0
KES1 250056Z 13012KT 30/12 A2987 RMK A01 T03020124  RH  034%=      5-min Rain = 0
KES1 250057Z 12010KT 30/12 A2987 RMK A01 T03020124  RH  034%=      5-min Rain = 0
KES1 250058Z 13010KT 30/12 A2987 RMK A01 T03010124  RH  034%=      5-min Rain = 0
KES1 250059Z 12010KT 30/12 A2987 RMK A01 T03010123  RH  034%=      5-min Rain = 0
KES1 250100Z 12011KT 30/12 A2987 RMK A01 T03010123  RH  034%=      5-min Rain = 0
KES1 250101Z 12012KT 30/12 A2987 RMK A01 T03000124  RH  034%=      5-min Rain = 0
KES1 250102Z 13012KT 30/12 A2987 RMK A01 T03000124  RH  034%=      5-min Rain = 0
KES1 250103Z 13013KT 30/12 A2987 RMK A01 T03000124  RH  034%=      5-min Rain = 0
KES1 250104Z 13012KT 30/12 A2987 RMK A01 T03000124  RH  034%=      5-min Rain = 0
KES1 250105Z 12009KT 30/13 A2987 RMK A01 T03000125  RH  034%=      5-min Rain = 0
KES1 250106Z 12009KT 30/13 A2987 RMK A01 T02990126  RH  034%=      5-min Rain = 0
KES1 250107Z 11009KT 30/13 A2987 RMK A01 T02990126  RH  035%=      5-min Rain = 0
KES1 250108Z 12012KT 30/13 A2987 RMK A01 T02990126  RH  035%=      5-min Rain = 0
KES1 250109Z 12012KT 30/13 A2988 RMK A01 T02980125  RH  034%=      5-min Rain = 0
KES1 250110Z 13009KT 30/13 A2988 RMK A01 T02980126  RH  035%=      5-min Rain = 0
KES1 250111Z 12010KT 30/13 A2988 RMK A01 T02980126  RH  035%=      5-min Rain = 0
KES1 250112Z 12011KT 30/13 A2988 RMK A01 T02980126  RH  035%=      5-min Rain = 0
KES1 250113Z 13012KT 30/13 A2988 RMK A01 T02980125  RH  035%=      5-min Rain = 0
KES1 250114Z 13012KT 30/13 A2988 RMK A01 T02980126  RH  035%=      5-min Rain = 0
KES1 250115Z 12010KT 30/13 A2988 RMK A01 T02980127  RH  035%=      5-min Rain = 0
KES1 250116Z 13011KT 30/13 A2988 RMK A01 T02970127  RH  035%=      5-min Rain = 0
KES1 250117Z 12009KT 30/13 A2989 RMK A01 T02970128  RH  035%=      5-min Rain = 0
KES1 250118Z 13010KT 30/13 A2988 RMK A01 T02970129  RH  036%=      5-min Rain = 0
KES1 250119Z 13011KT 30/13 A2988 RMK A01 T02970130  RH  036%=      5-min Rain = 0
KES1 250120Z 13009KT 30/13 A2988 RMK A01 T02970132  RH  036%=      5-min Rain = 0
KES1 250121Z 12009KT 30/13 A2988 RMK A01 T02960133  RH  037%=      5-min Rain = 0
KES1 250122Z 12012KT 30/13 A2988 RMK A01 T02950134  RH  037%=      5-min Rain = 0
KES1 250123Z 12012KT 29/13 A2988 RMK A01 T02940134  RH  037%=      5-min Rain = 0
KES1 250124Z 12010KT 29/13 A2989 RMK A01 T02940134  RH  037%=      5-min Rain = 0
KES1 250125Z 12010KT 29/14 A2989 RMK A01 T02940135  RH  038%=      5-min Rain = 0
KES1 250126Z 12010KT 29/14 A2989 RMK A01 T02940135  RH  038%=      5-min Rain = 0
KES1 250127Z 12010KT 29/14 A2989 RMK A01 T02940136  RH  038%=      5-min Rain = 0
KES1 250128Z 13008KT 29/14 A2989 RMK A01 T02940136  RH  038%=      5-min Rain = 0
KES1 250129Z 12011KT 29/14 A2989 RMK A01 T02930135  RH  038%=      5-min Rain = 0
KES1 250130Z 13009KT 29/14 A2989 RMK A01 T02930135  RH  038%=      5-min Rain = 0
KES1 250131Z 13010KT 29/14 A2989 RMK A01 T02930136  RH  038%=      5-min Rain = 0
KES1 250132Z 13009KT 29/14 A2989 RMK A01 T02920135  RH  038%=      5-min Rain = 0
KES1 250133Z 13009KT 29/14 A2989 RMK A01 T02920135  RH  038%=      5-min Rain = 0
KES1 250134Z 12009KT 29/14 A2989 RMK A01 T02920135  RH  038%=      5-min Rain = 0
KES1 250135Z 13009KT 29/14 A299 RMK A01 T02910135  RH  038%=      5-min Rain = 0
KES1 250136Z 13010KT 29/14 A299 RMK A01 T02910135  RH  038%=      5-min Rain = 0
KES1 250137Z 13009KT 29/14 A299 RMK A01 T02900135  RH  039%=      5-min Rain = 0
KES1 250138Z 12008KT 29/14 A299 RMK A01 T02900136  RH  039%=      5-min Rain = 0
KES1 250139Z 13010KT 29/14 A299 RMK A01 T02890136  RH  039%=      5-min Rain = 0
KES1 250140Z 13011KT 29/14 A299 RMK A01 T02890136  RH  039%=      5-min Rain = 0
KES1 250141Z 13010KT 29/14 A299 RMK A01 T02880136  RH  039%=      5-min Rain = 0
KES1 250142Z 13008KT 29/14 A2989 RMK A01 T02880137  RH  039%=      5-min Rain = 0
KES1 250143Z 12008KT 29/14 A2989 RMK A01 T02880138  RH  040%=      5-min Rain = 0
KES1 250144Z 12008KT 29/14 A2989 RMK A01 T02870138  RH  040%=      5-min Rain = 0
KES1 250145Z 13009KT 29/14 A2989 RMK A01 T02860138  RH  040%=      5-min Rain = 0
KES1 250146Z 12008KT 29/14 A2989 RMK A01 T02860138  RH  040%=      5-min Rain = 0
KES1 250147Z 13009KT 29/14 A2989 RMK A01 T02860139  RH  041%=      5-min Rain = 0
KES1 250148Z 12009KT 29/14 A2989 RMK A01 T02850139  RH  041%=      5-min Rain = 0
KES1 250149Z 12007KT 29/14 A2989 RMK A01 T02850139  RH  041%=      5-min Rain = 0
KES1 250150Z 12008KT 29/14 A2989 RMK A01 T02850139  RH  041%=      5-min Rain = 0
KES1 250151Z 12008KT 29/14 A2989 RMK A01 T02850139  RH  041%=      5-min Rain = 0
KES1 250152Z 12008KT 28/14 A2989 RMK A01 T02840139  RH  041%=      5-min Rain = 0
KES1 250153Z 12008KT 28/14 A2989 RMK A01 T02830140  RH  041%=      5-min Rain = 0
KES1 250154Z 12008KT 28/14 A2989 RMK A01 T02830140  RH  041%=      5-min Rain = 0
KES1 250155Z 12009KT 28/14 A2989 RMK A01 T02830140  RH  042%=      5-min Rain = 0
KES1 250156Z 12009KT 28/14 A2989 RMK A01 T02830141  RH  042%=      5-min Rain = 0
KES1 250157Z 12008KT 28/14 A2989 RMK A01 T02830141  RH  042%=      5-min Rain = 0
KES1 250158Z 12009KT 28/14 A2989 RMK A01 T02830141  RH  042%=      5-min Rain = 0
KES1 250159Z 12007KT 28/14 A2989 RMK A01 T02830142  RH  042%=      5-min Rain = 0
KES1 250200Z 11008KT 28/14 A2989 RMK A01 T02830143  RH  042%=      5-min Rain = 0
KES1 250201Z 12007KT 28/14 A2989 RMK A01 T02820143  RH  042%=      5-min Rain = 0
KES1 250202Z 11008KT 28/14 A2989 RMK A01 T02820144  RH  043%=      5-min Rain = 0
KES1 250203Z 11008KT 28/14 A2989 RMK A01 T02810143  RH  043%=      5-min Rain = 0
KES1 250204Z 11007KT 28/14 A2989 RMK A01 T02810144  RH  043%=      5-min Rain = 0
KES1 250205Z 12008KT 28/14 A2989 RMK A01 T02810144  RH  043%=      5-min Rain = 0
KES1 250206Z 12008KT 28/14 A2989 RMK A01 T02810144  RH  043%=      5-min Rain = 0
KES1 250207Z 11008KT 28/14 A2989 RMK A01 T02810144  RH  043%=      5-min Rain = 0
KES1 250208Z 12009KT 28/15 A2989 RMK A01 T02810145  RH  043%=      5-min Rain = 0
KES1 250209Z 12009G14KT 28/15 A2989 RMK A01 T02810145  RH  043%=      5-min Rain = 0
KES1 250210Z 12009KT 28/15 A2989 RMK A01 T02810146  RH  044%=      5-min Rain = 0
KES1 250211Z 12008KT 28/15 A2989 RMK A01 T02800145  RH  044%=      5-min Rain = 0
KES1 250212Z 11008KT 28/15 A2989 RMK A01 T02800146  RH  044%=      5-min Rain = 0
KES1 250213Z 12008KT 28/15 A2989 RMK A01 T02800146  RH  044%=      5-min Rain = 0
KES1 250214Z 11008KT 28/15 A2989 RMK A01 T02790146  RH  044%=      5-min Rain = 0
KES1 250215Z 11008KT 28/15 A2989 RMK A01 T02790147  RH  044%=      5-min Rain = 0
KES1 250216Z 11008KT 28/15 A2989 RMK A01 T02780147  RH  045%=      5-min Rain = 0
KES1 250217Z 12007KT 28/15 A2989 RMK A01 T02780147  RH  045%=      5-min Rain = 0
KES1 250218Z 11007KT 28/15 A2989 RMK A01 T02780147  RH  045%=      5-min Rain = 0
KES1 250219Z 12007KT 28/15 A2988 RMK A01 T02770148  RH  045%=      5-min Rain = 0
KES1 250220Z 11007KT 28/15 A2988 RMK A01 T02770148  RH  045%=      5-min Rain = 0
KES1 250221Z 11007KT 28/15 A2988 RMK A01 T02760149  RH  046%=      5-min Rain = 0
KES1 250222Z 11009KT 28/15 A2989 RMK A01 T02760149  RH  046%=      5-min Rain = 0
KES1 250223Z 12007KT 28/15 A2989 RMK A01 T02760149  RH  046%=      5-min Rain = 0
KES1 250224Z 12008KT 28/15 A2989 RMK A01 T02760150  RH  046%=      5-min Rain = 0
KES1 250225Z 11008KT 28/15 A2989 RMK A01 T02760151  RH  046%=      5-min Rain = 0
KES1 250226Z 12007KT 28/15 A2989 RMK A01 T02760151  RH  046%=      5-min Rain = 0
KES1 250227Z 12007KT 28/15 A2989 RMK A01 T02760152  RH  047%=      5-min Rain = 0
KES1 250228Z 12009KT 28/15 A2989 RMK A01 T02750152  RH  047%=      5-min Rain = 0
KES1 250229Z 12009KT 28/15 A2989 RMK A01 T02760152  RH  047%=      5-min Rain = 0
KES1 250230Z 12008KT 28/15 A2989 RMK A01 T02750153  RH  047%=      5-min Rain = 0
KES1 250231Z 12008KT 28/15 A299 RMK A01 T02750153  RH  047%=      5-min Rain = 0
KES1 250232Z 12007KT 28/15 A299 RMK A01 T02750154  RH  048%=      5-min Rain = 0
KES1 250233Z 12009KT 27/16 A299 RMK A01 T02740155  RH  048%=      5-min Rain = 0
KES1 250234Z 12009KT 27/16 A299 RMK A01 T02740155  RH  048%=      5-min Rain = 0
KES1 250235Z 12008KT 27/16 A299 RMK A01 T02740156  RH  048%=      5-min Rain = 0
KES1 250236Z 12007KT 27/16 A299 RMK A01 T02740156  RH  049%=      5-min Rain = 0
KES1 250237Z 12007KT 27/16 A299 RMK A01 T02730156  RH  049%=      5-min Rain = 0
KES1 250238Z 12007KT 27/16 A299 RMK A01 T02730157  RH  049%=      5-min Rain = 0
KES1 250239Z 13007KT 27/16 A299 RMK A01 T02730157  RH  049%=      5-min Rain = 0
KES1 250240Z 13006KT 27/16 A299 RMK A01 T02730157  RH  049%=      5-min Rain = 0
KES1 250241Z 12008KT 27/16 A299 RMK A01 T02720158  RH  049%=      5-min Rain = 0
KES1 250242Z 12009KT 27/16 A299 RMK A01 T02720158  RH  050%=      5-min Rain = 0
KES1 250243Z 13007KT 27/16 A299 RMK A01 T02720158  RH  050%=      5-min Rain = 0
KES1 250244Z 12009KT 27/16 A299 RMK A01 T02720158  RH  050%=      5-min Rain = 0
KES1 250245Z 13008KT 27/16 A299 RMK A01 T02720159  RH  050%=      5-min Rain = 0
KES1 250246Z 12008KT 27/16 A299 RMK A01 T02720159  RH  050%=      5-min Rain = 0
KES1 250247Z 12007KT 27/16 A299 RMK A01 T02720159  RH  050%=      5-min Rain = 0
KES1 250248Z 13009KT 27/16 A299 RMK A01 T02720159  RH  050%=      5-min Rain = 0
KES1 250249Z 12009KT 27/16 A299 RMK A01 T02720159  RH  050%=      5-min Rain = 0
KES1 250250Z 13009KT 27/16 A299 RMK A01 T02720160  RH  050%=      5-min Rain = 0
KES1 250251Z 12007KT 27/16 A299 RMK A01 T02720159  RH  050%=      5-min Rain = 0
KES1 250252Z 12008KT 27/16 A299 RMK A01 T02720160  RH  050%=      5-min Rain = 0
KES1 250253Z 12007KT 27/16 A299 RMK A01 T02710160  RH  051%=      5-min Rain = 0
KES1 250254Z 12009KT 27/16 A299 RMK A01 T02700160  RH  051%=      5-min Rain = 0
KES1 250255Z 12009KT 27/16 A299 RMK A01 T02700160  RH  051%=      5-min Rain = 0
KES1 250256Z 11008KT 27/16 A299 RMK A01 T02700160  RH  051%=      5-min Rain = 0
KES1 250257Z 12008KT 27/16 A299 RMK A01 T02700160  RH  051%=      5-min Rain = 0
KES1 250258Z 12008KT 27/16 A299 RMK A01 T02700161  RH  051%=      5-min Rain = 0
KES1 250259Z 13008KT 27/16 A299 RMK A01 T02700160  RH  051%=      5-min Rain = 0
KES1 250300Z 12006KT 27/16 A299 RMK A01 T02700161  RH  051%=      5-min Rain = 0
KES1 250301Z 13009KT 27/16 A299 RMK A01 T02690160  RH  051%=      5-min Rain = 0
KES1 250302Z 12009KT 27/16 A299 RMK A01 T02700161  RH  051%=      5-min Rain = 0
KES1 250303Z 12010KT 27/16 A299 RMK A01 T02690161  RH  051%=      5-min Rain = 0
KES1 250304Z 12011KT 27/16 A299 RMK A01 T02690161  RH  051%=      5-min Rain = 0
KES1 250305Z 12009G14KT 27/16 A299 RMK A01 T02700161  RH  051%=      5-min Rain = 0
KES1 250306Z 12010KT 27/16 A2991 RMK A01 T02700161  RH  051%=      5-min Rain = 0
KES1 250307Z 13009KT 27/16 A2991 RMK A01 T02700162  RH  052%=      5-min Rain = 0
KES1 250308Z 12008KT 27/16 A2991 RMK A01 T02700162  RH  052%=      5-min Rain = 0
KES1 250309Z 13010KT 27/16 A299 RMK A01 T02690163  RH  052%=      5-min Rain = 0
KES1 250310Z 12009KT 27/16 A299 RMK A01 T02690163  RH  052%=      5-min Rain = 0
KES1 250311Z 12008KT 27/16 A299 RMK A01 T02690164  RH  052%=      5-min Rain = 0
KES1 250312Z 13008KT 27/16 A299 RMK A01 T02690164  RH  053%=      5-min Rain = 0
KES1 250313Z 12010KT 27/17 A299 RMK A01 T02690165  RH  053%=      5-min Rain = 0
KES1 250314Z 12010KT 27/16 A299 RMK A01 T02680164  RH  053%=      5-min Rain = 0
KES1 250315Z 12011KT 27/17 A299 RMK A01 T02680165  RH  053%=      5-min Rain = 0
KES1 250316Z 12008KT 27/17 A299 RMK A01 T02680165  RH  053%=      5-min Rain = 0
KES1 250317Z 12009KT 27/17 A299 RMK A01 T02680165  RH  053%=      5-min Rain = 0
KES1 250318Z 12010KT 27/17 A299 RMK A01 T02670165  RH  053%=      5-min Rain = 0
KES1 250319Z 12011KT 27/17 A299 RMK A01 T02680166  RH  053%=      5-min Rain = 0
KES1 250320Z 12010KT 27/17 A299 RMK A01 T02680166  RH  054%=      5-min Rain = 0
KES1 250321Z 12010KT 27/17 A299 RMK A01 T02680166  RH  054%=      5-min Rain = 0
KES1 250322Z 13008KT 27/17 A299 RMK A01 T02670166  RH  054%=      5-min Rain = 0
KES1 250323Z 12009KT 27/17 A299 RMK A01 T02670166  RH  054%=      5-min Rain = 0
KES1 250324Z 12010KT 27/17 A299 RMK A01 T02660165  RH  054%=      5-min Rain = 0
KES1 250325Z 12009KT 27/17 A299 RMK A01 T02660165  RH  054%=      5-min Rain = 0
KES1 250326Z 12008KT 27/17 A2991 RMK A01 T02660166  RH  054%=      5-min Rain = 0
KES1 250327Z 12009KT 27/17 A2991 RMK A01 T02660166  RH  054%=      5-min Rain = 0
KES1 250328Z 12010KT 27/17 A2991 RMK A01 T02650166  RH  054%=      5-min Rain = 0
KES1 250329Z 12011KT 27/17 A2991 RMK A01 T02650166  RH  054%=      5-min Rain = 0
KES1 250330Z 11010KT 27/17 A2991 RMK A01 T02660167  RH  054%=      5-min Rain = 0
KES1 250331Z 12008KT 27/17 A2991 RMK A01 T02660167  RH  054%=      5-min Rain = 0
KES1 250332Z 12010KT 27/17 A2991 RMK A01 T02660167  RH  055%=      5-min Rain = 0
KES1 250333Z 13009KT 27/17 A2991 RMK A01 T02660167  RH  055%=      5-min Rain = 0
KES1 250334Z 12010KT 27/17 A2991 RMK A01 T02660168  RH  055%=      5-min Rain = 0
KES1 250335Z 12009KT 27/17 A2991 RMK A01 T02660168  RH  055%=      5-min Rain = 0
KES1 250336Z 11012KT 27/17 A2991 RMK A01 T02660169  RH  055%=      5-min Rain = 0
KES1 250337Z 12010KT 27/17 A2991 RMK A01 T02660169  RH  055%=      5-min Rain = 0
KES1 250338Z 12011KT 27/17 A2991 RMK A01 T02660169  RH  055%=      5-min Rain = 0
KES1 250339Z 11011KT 27/17 A2991 RMK A01 T02660169  RH  055%=      5-min Rain = 0
KES1 250340Z 12009KT 27/17 A2991 RMK A01 T02660170  RH  056%=      5-min Rain = 0
KES1 250341Z 11011G16KT 27/17 A2991 RMK A01 T02650170  RH  056%=      5-min Rain = 0
KES1 250342Z 12007KT 27/17 A2991 RMK A01 T02650170  RH  056%=      5-min Rain = 0
KES1 250343Z 11007KT 27/17 A2991 RMK A01 T02650170  RH  056%=      5-min Rain = 0
KES1 250344Z 12012KT 26/17 A2991 RMK A01 T02640171  RH  056%=      5-min Rain = 0
KES1 250345Z 11010KT 26/17 A2991 RMK A01 T02640171  RH  057%=      5-min Rain = 0
KES1 250346Z 11008KT 26/17 A2991 RMK A01 T02640171  RH  057%=      5-min Rain = 0
KES1 250347Z 11010KT 26/17 A2991 RMK A01 T02640171  RH  057%=      5-min Rain = 0
KES1 250348Z 12010KT 26/17 A2991 RMK A01 T02640171  RH  057%=      5-min Rain = 0
KES1 250349Z 11009KT 26/17 A2991 RMK A01 T02640172  RH  057%=      5-min Rain = 0
KES1 250350Z 12010KT 26/17 A2991 RMK A01 T02640172  RH  057%=      5-min Rain = 0
KES1 250351Z 11008KT 26/17 A2991 RMK A01 T02640172  RH  057%=      5-min Rain = 0
KES1 250352Z 11008KT 26/17 A2991 RMK A01 T02640172  RH  057%=      5-min Rain = 0
KES1 250353Z 12010KT 26/17 A2991 RMK A01 T02630172  RH  057%=      5-min Rain = 0
KES1 250354Z 11011KT 26/17 A2991 RMK A01 T02620172  RH  057%=      5-min Rain = 0
KES1 250355Z 11010KT 26/17 A2991 RMK A01 T02620172  RH  057%=      5-min Rain = 0
KES1 250356Z 11009KT 26/17 A2991 RMK A01 T02630172  RH  057%=      5-min Rain = 0
KES1 250357Z 11010KT 26/17 A2991 RMK A01 T02630172  RH  057%=      5-min Rain = 0
KES1 250358Z 11012KT 26/17 A2991 RMK A01 T02630173  RH  057%=      5-min Rain = 0
KES1 250359Z 11012KT 26/17 A2991 RMK A01 T02630173  RH  057%=      5-min Rain = 0
KES1 250400Z 11011KT 26/17 A2991 RMK A01 T02630172  RH  057%=      5-min Rain = 0
KES1 250401Z 11010KT 26/17 A2991 RMK A01 T02630173  RH  058%=      5-min Rain = 0
KES1 250402Z 11012KT 26/17 A2991 RMK A01 T02630173  RH  058%=      5-min Rain = 0
KES1 250403Z 11009KT 26/17 A2991 RMK A01 T02630173  RH  058%=      5-min Rain = 0
KES1 250404Z 11010KT 26/17 A2992 RMK A01 T02620173  RH  058%=      5-min Rain = 0
KES1 250405Z 11010KT 26/17 A2992 RMK A01 T02620173  RH  058%=      5-min Rain = 0
KES1 250406Z 11010KT 26/17 A2991 RMK A01 T02620173  RH  058%=      5-min Rain = 0
KES1 250407Z 12010KT 26/17 A2992 RMK A01 T02620173  RH  058%=      5-min Rain = 0
KES1 250408Z 11009KT 26/17 A2992 RMK A01 T02610173  RH  058%=      5-min Rain = 0
KES1 250409Z 11010KT 26/17 A2991 RMK A01 T02620173  RH  058%=      5-min Rain = 0
KES1 250410Z 10009KT 26/17 A2991 RMK A01 T02610173  RH  058%=      5-min Rain = 0
KES1 250411Z 11008KT 26/17 A2991 RMK A01 T02600173  RH  059%=      5-min Rain = 0
KES1 250412Z 11010KT 26/17 A2991 RMK A01 T02600173  RH  059%=      5-min Rain = 0
KES1 250413Z 11009KT 26/17 A2991 RMK A01 T02600173  RH  059%=      5-min Rain = 0
KES1 250414Z 11010KT 26/17 A2991 RMK A01 T02600174  RH  059%=      5-min Rain = 0
KES1 250415Z 11010G15KT 26/17 A2991 RMK A01 T02600174  RH  059%=      5-min Rain = 0
KES1 250416Z 12011KT 26/17 A2991 RMK A01 T02600174  RH  059%=      5-min Rain = 0
KES1 250417Z 12010KT 26/17 A2992 RMK A01 T02600174  RH  059%=      5-min Rain = 0
KES1 250418Z 12012KT 26/17 A2992 RMK A01 T02600174  RH  059%=      5-min Rain = 0
KES1 250419Z 12010KT 26/17 A2992 RMK A01 T02600174  RH  059%=      5-min Rain = 0
KES1 250420Z 12008G13KT 26/17 A2992 RMK A01 T02600174  RH  059%=      5-min Rain = 0
KES1 250421Z 12012KT 26/17 A2992 RMK A01 T02600174  RH  059%=      5-min Rain = 0
KES1 250422Z 12011KT 26/17 A2992 RMK A01 T02600174  RH  059%=      5-min Rain = 0
KES1 250423Z 12011KT 26/17 A2992 RMK A01 T02600174  RH  059%=      5-min Rain = 0
KES1 250424Z 13010KT 26/18 A2992 RMK A01 T02600175  RH  059%=      5-min Rain = 0
KES1 250425Z 12013KT 26/18 A2992 RMK A01 T02600176  RH  060%=      5-min Rain = 0
KES1 250426Z 12013KT 26/18 A2992 RMK A01 T02600176  RH  060%=      5-min Rain = 0
KES1 250427Z 12010KT 26/18 A2992 RMK A01 T02590177  RH  060%=      5-min Rain = 0
KES1 250428Z 12008KT 26/18 A2992 RMK A01 T02590177  RH  060%=      5-min Rain = 0
KES1 250429Z 13010KT 26/18 A2992 RMK A01 T02580177  RH  061%=      5-min Rain = 0
KES1 250430Z 11011KT 26/18 A2992 RMK A01 T02580177  RH  061%=      5-min Rain = 0
KES1 250431Z 12008KT 26/18 A2992 RMK A01 T02570177  RH  061%=      5-min Rain = 0
KES1 250432Z 12010KT 26/18 A2992 RMK A01 T02570178  RH  061%=      5-min Rain = 0
KES1 250433Z 12008KT 26/18 A2992 RMK A01 T02570177  RH  062%=      5-min Rain = 0
KES1 250434Z 12010KT 26/18 A2992 RMK A01 T02560178  RH  062%=      5-min Rain = 0
KES1 250435Z 11011KT 26/18 A2992 RMK A01 T02560178  RH  062%=      5-min Rain = 0
KES1 250436Z 12012KT 26/18 A2991 RMK A01 T02560178  RH  062%=      5-min Rain = 0
KES1 250437Z 12012KT 26/18 A2991 RMK A01 T02560179  RH  062%=      5-min Rain = 0
KES1 250438Z 12011KT 26/18 A2992 RMK A01 T02560179  RH  062%=      5-min Rain = 0
KES1 250439Z 11009KT 26/18 A2992 RMK A01 T02560179  RH  062%=      5-min Rain = 0
KES1 250440Z 12008KT 26/18 A2992 RMK A01 T02560180  RH  063%=      5-min Rain = 0
KES1 250441Z 12008KT 26/18 A2992 RMK A01 T02560180  RH  063%=      5-min Rain = 0
KES1 250442Z 12009KT 26/18 A2992 RMK A01 T02550180  RH  063%=      5-min Rain = 0
KES1 250443Z 12007KT 26/18 A2992 RMK A01 T02550181  RH  063%=      5-min Rain = 0
KES1 250444Z 12010KT 25/18 A2992 RMK A01 T02540180  RH  063%=      5-min Rain = 0
KES1 250445Z 13009KT 25/18 A2992 RMK A01 T02540180  RH  064%=      5-min Rain = 0
KES1 250446Z 13011KT 25/18 A2992 RMK A01 T02540181  RH  064%=      5-min Rain = 0
KES1 250447Z 13008KT 26/18 A2992 RMK A01 T02550181  RH  064%=      5-min Rain = 0
KES1 250448Z 13008KT 25/18 A2992 RMK A01 T02540181  RH  064%=      5-min Rain = 0
KES1 250449Z 12011KT 25/18 A2992 RMK A01 T02540181  RH  064%=      5-min Rain = 0
KES1 250450Z 13009KT 25/18 A2992 RMK A01 T02530181  RH  064%=      5-min Rain = 0
KES1 250451Z 13009KT 25/18 A2992 RMK A01 T02540182  RH  065%=      5-min Rain = 0
KES1 250452Z 13011KT 25/18 A2992 RMK A01 T02540183  RH  065%=      5-min Rain = 0
KES1 250453Z 13010KT 25/18 A2992 RMK A01 T02540184  RH  065%=      5-min Rain = 0
KES1 250454Z 14010KT 25/18 A2992 RMK A01 T02530183  RH  065%=      5-min Rain = 0
KES1 250455Z 13012KT 25/19 A2992 RMK A01 T02540185  RH  066%=      5-min Rain = 0
KES1 250456Z 13011KT 25/19 A2992 RMK A01 T02540186  RH  066%=      5-min Rain = 0
KES1 250457Z 13010KT 25/19 A2992 RMK A01 T02530186  RH  066%=      5-min Rain = 0
KES1 250458Z 13010KT 25/19 A2992 RMK A01 T02530186  RH  066%=      5-min Rain = 0
KES1 250459Z 13011KT 25/19 A2992 RMK A01 T02530187  RH  067%=      5-min Rain = 0

Page generated in 0.0708 seconds.